Observation data for Canadian on 05/24/2019      Previous  Date  Next       Current Mesonet Observations  Soil Data  Daily Summary Page  Observations in Plain Language
KCA1 240500Z 19017KT 22/21 A2988 RMK A01 T02170206  RH  093%=      5-min Rain = 0
KCA1 240501Z 19014G19KT 22/21 A2988 RMK A01 T02180206  RH  093%=      5-min Rain = 0
KCA1 240502Z 19017KT 22/21 A2988 RMK A01 T02180206  RH  093%=      5-min Rain = 0
KCA1 240503Z 19016KT 22/21 A2988 RMK A01 T02180205  RH  092%=      5-min Rain = 0
KCA1 240504Z 18016G23KT 22/21 A2988 RMK A01 T02180205  RH  092%=      5-min Rain = 0
KCA1 240505Z 18018KT 22/21 A2988 RMK A01 T02170206  RH  093%=      5-min Rain = 0.01
KCA1 240506Z 18018KT 22/21 A2988 RMK A01 T02160206  RH  094%=      5-min Rain = 0.01
KCA1 240507Z 18018G23KT 22/21 A2988 RMK A01 T02150208  RH  096%=      5-min Rain = 0.02
KCA1 240508Z 18020KT 21/21 A2988 RMK A01 T02140209  RH  097%=      5-min Rain = 0
KCA1 240509Z 17017KT 21/21 A2988 RMK A01 T02130210  RH  098%=      5-min Rain = 0.01
KCA1 240510Z 17019KT 21/21 A2987 RMK A01 T02130211  RH  099%=      5-min Rain = 0.03
KCA1 240511Z 17016KT 21/21 A2987 RMK A01 T02120211  RH  099%=      5-min Rain = 0
KCA1 240512Z 17018KT 21/21 A2987 RMK A01 T02120211  RH  100%=      5-min Rain = 0
KCA1 240513Z 17019KT 21/21 A2987 RMK A01 T02110211  RH  100%=      5-min Rain = 0
KCA1 240514Z 18017KT 21/21 A2988 RMK A01 T02110211  RH  100%=      5-min Rain = 0
KCA1 240515Z 17015KT 21/21 A2988 RMK A01 T02110210  RH  100%=      5-min Rain = 0
KCA1 240516Z 17015KT 21/21 A2987 RMK A01 T02090206  RH  098%=      5-min Rain = 0
KCA1 240517Z 17015KT 21/20 A2987 RMK A01 T02090201  RH  095%=      5-min Rain = 0
KCA1 240518Z 17015KT 21/20 A2987 RMK A01 T02090198  RH  093%=      5-min Rain = 0
KCA1 240519Z 18015KT 21/19 A2988 RMK A01 T02100193  RH  090%=      5-min Rain = 0
KCA1 240520Z 19015KT 21/19 A2989 RMK A01 T02100193  RH  090%=      5-min Rain = 0
KCA1 240521Z 20014KT 21/19 A2989 RMK A01 T02080194  RH  091%=      5-min Rain = 0
KCA1 240522Z 20013KT 21/19 A2989 RMK A01 T02070193  RH  092%=      5-min Rain = 0
KCA1 240523Z 19011G17KT 21/19 A2988 RMK A01 T02060194  RH  093%=      5-min Rain = 0.01
KCA1 240524Z 19015G28KT 21/19 A2988 RMK A01 T02050193  RH  093%=      5-min Rain = 0
KCA1 240525Z 19025G31KT 20/17 A2988 RMK A01 T02030167  RH  080%=      5-min Rain = 0.01
KCA1 240526Z 18021KT 20/16 A2988 RMK A01 T01990156  RH  077%=      5-min Rain = 0
KCA1 240527Z 18019G26KT 20/17 A2987 RMK A01 T01950166  RH  083%=      5-min Rain = 0
KCA1 240528Z 19022G28KT 19/17 A2986 RMK A01 T01930172  RH  087%=      5-min Rain = 0.01
KCA1 240529Z 19017KT 20/17 A2986 RMK A01 T01950172  RH  087%=      5-min Rain = 0
KCA1 240530Z 19017KT 20/17 A2987 RMK A01 T01950173  RH  087%=      5-min Rain = 0.01
KCA1 240531Z 18015G20KT 20/17 A2987 RMK A01 T01950168  RH  085%=      5-min Rain = 0
KCA1 240532Z 18016G22KT 19/17 A2987 RMK A01 T01930168  RH  085%=      5-min Rain = 0
KCA1 240533Z 18019G24KT 19/17 A2987 RMK A01 T01910166  RH  085%=      5-min Rain = 0
KCA1 240534Z 18019KT 19/17 A2987 RMK A01 T01910166  RH  086%=      5-min Rain = 0
KCA1 240535Z 17018KT 19/16 A2987 RMK A01 T01900164  RH  085%=      5-min Rain = 0
KCA1 240536Z 16019KT 19/17 A2987 RMK A01 T01900165  RH  086%=      5-min Rain = 0
KCA1 240537Z 16018KT 19/17 A2987 RMK A01 T01890165  RH  086%=      5-min Rain = 0
KCA1 240538Z 16018KT 19/17 A2987 RMK A01 T01880167  RH  087%=      5-min Rain = 0
KCA1 240539Z 15020G25KT 19/17 A2986 RMK A01 T01870169  RH  089%=      5-min Rain = 0
KCA1 240540Z 15020KT 19/17 A2986 RMK A01 T01870170  RH  090%=      5-min Rain = 0
KCA1 240541Z 15020KT 19/17 A2985 RMK A01 T01870171  RH  090%=      5-min Rain = 0
KCA1 240542Z 16022G29KT 19/17 A2986 RMK A01 T01870169  RH  090%=      5-min Rain = 0
KCA1 240543Z 16014KT 19/17 A2986 RMK A01 T01870165  RH  087%=      5-min Rain = 0
KCA1 240544Z 16016G23KT 19/17 A2986 RMK A01 T01880166  RH  087%=      5-min Rain = 0
KCA1 240545Z 16021G26KT 19/17 A2986 RMK A01 T01870166  RH  087%=      5-min Rain = 0
KCA1 240546Z 16021KT 19/16 A2986 RMK A01 T01870164  RH  086%=      5-min Rain = 0
KCA1 240547Z 16020G26KT 19/16 A2986 RMK A01 T01860164  RH  087%=      5-min Rain = 0.01
KCA1 240548Z 16022KT 19/16 A2987 RMK A01 T01860162  RH  086%=      5-min Rain = 0
KCA1 240549Z 16019KT 19/16 A2987 RMK A01 T01860162  RH  086%=      5-min Rain = 0
KCA1 240550Z 16021KT 19/16 A2988 RMK A01 T01850162  RH  086%=      5-min Rain = 0
KCA1 240551Z 16020G26KT 19/16 A2988 RMK A01 T01850163  RH  087%=      5-min Rain = 0
KCA1 240552Z 15021KT 18/16 A2989 RMK A01 T01840163  RH  088%=      5-min Rain = 0
KCA1 240553Z 15020G26KT 18/16 A2989 RMK A01 T01830163  RH  088%=      5-min Rain = 0
KCA1 240554Z 15018KT 18/16 A2989 RMK A01 T01820164  RH  089%=      5-min Rain = 0
KCA1 240555Z 15015KT 18/17 A2989 RMK A01 T01810165  RH  090%=      5-min Rain = 0
KCA1 240556Z 15013KT 18/17 A2988 RMK A01 T01800165  RH  091%=      5-min Rain = 0
KCA1 240557Z 15016KT 18/17 A2988 RMK A01 T01790166  RH  092%=      5-min Rain = 0
KCA1 240558Z 15016KT 18/17 A2988 RMK A01 T01790166  RH  092%=      5-min Rain = 0
KCA1 240559Z 15014KT 18/17 A2988 RMK A01 T01780166  RH  093%=      5-min Rain = 0
KCA1 240600Z 15017KT 18/17 A2988 RMK A01 T01770166  RH  093%=      5-min Rain = 0
KCA1 240601Z 14017KT 18/16 A2987 RMK A01 T01770164  RH  092%=      5-min Rain = 0
KCA1 240602Z 14016KT 18/16 A2987 RMK A01 T01770162  RH  091%=      5-min Rain = 0
KCA1 240603Z 14016KT 18/16 A2987 RMK A01 T01780162  RH  090%=      5-min Rain = 0
KCA1 240604Z 14016KT 18/16 A2987 RMK A01 T01780162  RH  090%=      5-min Rain = 0
KCA1 240605Z 14015KT 18/16 A2987 RMK A01 T01780162  RH  091%=      5-min Rain = 0
KCA1 240606Z 15014KT 18/16 A2988 RMK A01 T01780164  RH  091%=      5-min Rain = 0
KCA1 240607Z 15013G18KT 18/16 A2987 RMK A01 T01770164  RH  092%=      5-min Rain = 0
KCA1 240608Z 16016KT 18/16 A2987 RMK A01 T01770164  RH  092%=      5-min Rain = 0
KCA1 240609Z 16016KT 18/16 A2987 RMK A01 T01780163  RH  091%=      5-min Rain = 0
KCA1 240610Z 16016G21KT 18/16 A2987 RMK A01 T01800162  RH  089%=      5-min Rain = 0
KCA1 240611Z 16016KT 18/16 A2987 RMK A01 T01820162  RH  088%=      5-min Rain = 0
KCA1 240612Z 17016KT 18/16 A2986 RMK A01 T01840161  RH  086%=      5-min Rain = 0
KCA1 240613Z 17017KT 19/16 A2986 RMK A01 T01860161  RH  086%=      5-min Rain = 0
KCA1 240614Z 16019G24KT 19/16 A2986 RMK A01 T01870161  RH  085%=      5-min Rain = 0
KCA1 240615Z 16019G27KT 19/16 A2985 RMK A01 T01880159  RH  083%=      5-min Rain = 0
KCA1 240616Z 16018G23KT 19/16 A2985 RMK A01 T01900159  RH  082%=      5-min Rain = 0
KCA1 240617Z 16020KT 19/16 A2985 RMK A01 T01910159  RH  082%=      5-min Rain = 0
KCA1 240618Z 17020G25KT 19/16 A2984 RMK A01 T01920159  RH  081%=      5-min Rain = 0
KCA1 240619Z 17020G25KT 19/16 A2985 RMK A01 T01920161  RH  082%=      5-min Rain = 0
KCA1 240620Z 18016KT 19/16 A2986 RMK A01 T01920163  RH  083%=      5-min Rain = 0
KCA1 240621Z 20015G20KT 19/16 A2988 RMK A01 T01920163  RH  083%=      5-min Rain = 0
KCA1 240622Z 24012KT 19/16 A2989 RMK A01 T01910162  RH  083%=      5-min Rain = 0
KCA1 240623Z 27012KT 19/16 A2989 RMK A01 T01910163  RH  083%=      5-min Rain = 0
KCA1 240624Z 29009KT 19/16 A299 RMK A01 T01880161  RH  084%=      5-min Rain = 0
KCA1 240625Z 29010KT 19/16 A2989 RMK A01 T01850160  RH  085%=      5-min Rain = 0
KCA1 240626Z 31009KT 18/16 A2988 RMK A01 T01830158  RH  085%=      5-min Rain = 0
KCA1 240627Z 29007KT 18/16 A2988 RMK A01 T01830158  RH  086%=      5-min Rain = 0
KCA1 240628Z 28008KT 18/16 A2989 RMK A01 T01830159  RH  086%=      5-min Rain = 0
KCA1 240629Z 28007KT 18/16 A2988 RMK A01 T01830155  RH  084%=      5-min Rain = 0
KCA1 240630Z 28007KT 19/15 A2988 RMK A01 T01870154  RH  081%=      5-min Rain = 0
KCA1 240631Z 28013KT 19/16 A2989 RMK A01 T01880157  RH  082%=      5-min Rain = 0
KCA1 240632Z 26017G22KT 19/16 A2991 RMK A01 T01870159  RH  084%=      5-min Rain = 0
KCA1 240633Z 25014G22KT 19/16 A299 RMK A01 T01860159  RH  084%=      5-min Rain = 0
KCA1 240634Z 22012KT 19/16 A2989 RMK A01 T01860159  RH  084%=      5-min Rain = 0
KCA1 240635Z 24010KT 19/16 A2989 RMK A01 T01870160  RH  085%=      5-min Rain = 0
KCA1 240636Z 26014KT 19/16 A2989 RMK A01 T01870162  RH  085%=      5-min Rain = 0
KCA1 240637Z 28014KT 19/16 A299 RMK A01 T01870158  RH  084%=      5-min Rain = 0
KCA1 240638Z 27010KT 19/16 A299 RMK A01 T01850157  RH  084%=      5-min Rain = 0
KCA1 240639Z 26009KT 18/16 A299 RMK A01 T01820158  RH  086%=      5-min Rain = 0
KCA1 240640Z 27010KT 18/16 A299 RMK A01 T01790157  RH  087%=      5-min Rain = 0
KCA1 240641Z 26010KT 18/16 A2991 RMK A01 T01770158  RH  089%=      5-min Rain = 0
KCA1 240642Z 27010KT 18/16 A2991 RMK A01 T01750159  RH  091%=      5-min Rain = 0
KCA1 240643Z 29010KT 17/16 A2991 RMK A01 T01730159  RH  091%=      5-min Rain = 0
KCA1 240644Z 29011KT 17/16 A2991 RMK A01 T01710158  RH  092%=      5-min Rain = 0
KCA1 240645Z 28009KT 17/16 A2992 RMK A01 T01700156  RH  091%=      5-min Rain = 0
KCA1 240646Z 28009KT 17/15 A2992 RMK A01 T01680154  RH  092%=      5-min Rain = 0
KCA1 240647Z 28011KT 17/15 A2992 RMK A01 T01670154  RH  092%=      5-min Rain = 0
KCA1 240648Z 27010KT 17/15 A2993 RMK A01 T01660153  RH  092%=      5-min Rain = 0
KCA1 240649Z 27010KT 17/15 A2993 RMK A01 T01650154  RH  093%=      5-min Rain = 0
KCA1 240650Z 29013KT 16/15 A2993 RMK A01 T01640153  RH  093%=      5-min Rain = 0
KCA1 240651Z 29013KT 16/15 A2993 RMK A01 T01630152  RH  093%=      5-min Rain = 0
KCA1 240652Z 29011KT 16/15 A2993 RMK A01 T01620151  RH  093%=      5-min Rain = 0
KCA1 240653Z 30010KT 16/15 A2992 RMK A01 T01610151  RH  094%=      5-min Rain = 0
KCA1 240654Z 30011KT 16/15 A2992 RMK A01 T01590150  RH  094%=      5-min Rain = 0
KCA1 240655Z 30010KT 16/15 A2992 RMK A01 T01590150  RH  095%=      5-min Rain = 0
KCA1 240656Z 30009KT 16/15 A2991 RMK A01 T01580150  RH  095%=      5-min Rain = 0
KCA1 240657Z 30008KT 16/15 A2991 RMK A01 T01570151  RH  096%=      5-min Rain = 0
KCA1 240658Z 31008KT 16/15 A2991 RMK A01 T01560151  RH  096%=      5-min Rain = 0
KCA1 240659Z 30007KT 16/15 A2992 RMK A01 T01560151  RH  097%=      5-min Rain = 0
KCA1 240700Z 29005KT 16/15 A2992 RMK A01 T01560151  RH  097%=      5-min Rain = 0
KCA1 240701Z 30006KT 16/15 A2993 RMK A01 T01550150  RH  096%=      5-min Rain = 0
KCA1 240702Z 31003KT 16/15 A2993 RMK A01 T01550149  RH  096%=      5-min Rain = 0
KCA1 240703Z 29002KT 16/15 A2993 RMK A01 T01550149  RH  096%=      5-min Rain = 0
KCA1 240704Z 29003KT 16/15 A2993 RMK A01 T01550149  RH  096%=      5-min Rain = 0
KCA1 240705Z 29005KT 16/15 A2994 RMK A01 T01550148  RH  096%=      5-min Rain = 0
KCA1 240706Z 29004KT 15/15 A2994 RMK A01 T01540147  RH  095%=      5-min Rain = 0
KCA1 240707Z 29003KT 15/15 A2994 RMK A01 T01540145  RH  094%=      5-min Rain = 0
KCA1 240708Z 30002KT 15/15 A2994 RMK A01 T01540145  RH  094%=      5-min Rain = 0
KCA1 240709Z 30003KT 15/15 A2994 RMK A01 T01540145  RH  095%=      5-min Rain = 0
KCA1 240710Z 29004KT 15/15 A2995 RMK A01 T01540145  RH  095%=      5-min Rain = 0
KCA1 240711Z 29003KT 15/15 A2995 RMK A01 T01530145  RH  095%=      5-min Rain = 0
KCA1 240712Z 29002KT 15/15 A2995 RMK A01 T01530145  RH  095%=      5-min Rain = 0
KCA1 240713Z 27002KT 15/15 A2994 RMK A01 T01520145  RH  095%=      5-min Rain = 0
KCA1 240714Z 33003KT 15/14 A2994 RMK A01 T01520144  RH  095%=      5-min Rain = 0.01
KCA1 240715Z 32004KT 15/15 A2994 RMK A01 T01520145  RH  095%=      5-min Rain = 0
KCA1 240716Z 32005KT 15/15 A2994 RMK A01 T01520145  RH  095%=      5-min Rain = 0
KCA1 240717Z 32008KT 15/15 A2994 RMK A01 T01520146  RH  096%=      5-min Rain = 0
KCA1 240718Z 32010KT 15/15 A2994 RMK A01 T01520146  RH  096%=      5-min Rain = 0
KCA1 240719Z 31013KT 15/15 A2995 RMK A01 T01510146  RH  097%=      5-min Rain = 0
KCA1 240720Z 31013KT 15/15 A2995 RMK A01 T01510147  RH  097%=      5-min Rain = 0
KCA1 240721Z 32012KT 15/15 A2995 RMK A01 T01510147  RH  098%=      5-min Rain = 0
KCA1 240722Z 31011KT 15/15 A2995 RMK A01 T01500147  RH  098%=      5-min Rain = 0
KCA1 240723Z 31011KT 15/15 A2995 RMK A01 T01500147  RH  098%=      5-min Rain = 0
KCA1 240724Z 30007KT 15/15 A2994 RMK A01 T01500147  RH  098%=      5-min Rain = 0
KCA1 240725Z 31006KT 15/15 A2994 RMK A01 T01490147  RH  098%=      5-min Rain = 0.01
KCA1 240726Z 33005KT 15/15 A2993 RMK A01 T01490146  RH  098%=      5-min Rain = 0
KCA1 240727Z 33005KT 15/15 A2993 RMK A01 T01490146  RH  098%=      5-min Rain = 0
KCA1 240728Z 33006KT 15/15 A2993 RMK A01 T01490146  RH  098%=      5-min Rain = 0
KCA1 240729Z 31008KT 15/15 A2994 RMK A01 T01490147  RH  098%=      5-min Rain = 0
KCA1 240730Z 32009KT 15/15 A2994 RMK A01 T01490147  RH  099%=      5-min Rain = 0
KCA1 240731Z 32009KT 15/15 A2995 RMK A01 T01490147  RH  099%=      5-min Rain = 0.01
KCA1 240732Z 31009KT 15/15 A2995 RMK A01 T01490148  RH  099%=      5-min Rain = 0
KCA1 240733Z 33010KT 15/15 A2995 RMK A01 T01490147  RH  099%=      5-min Rain = 0
KCA1 240734Z 33007KT 15/15 A2994 RMK A01 T01480146  RH  098%=      5-min Rain = 0
KCA1 240735Z 34006KT 15/15 A2994 RMK A01 T01480145  RH  098%=      5-min Rain = 0
KCA1 240736Z 33004KT 15/15 A2994 RMK A01 T01490145  RH  098%=      5-min Rain = 0.01
KCA1 240737Z 02002KT 15/15 A2994 RMK A01 T01490145  RH  098%=      5-min Rain = 0
KCA1 240738Z 04003KT 15/15 A2994 RMK A01 T01490145  RH  098%=      5-min Rain = 0
KCA1 240739Z 04003KT 15/15 A2994 RMK A01 T01480145  RH  098%=      5-min Rain = 0
KCA1 240740Z 04003KT 15/15 A2994 RMK A01 T01480145  RH  098%=      5-min Rain = 0
KCA1 240741Z 05004KT 15/15 A2994 RMK A01 T01480145  RH  098%=      5-min Rain = 0
KCA1 240742Z 05004KT 15/15 A2994 RMK A01 T01490145  RH  098%=      5-min Rain = 0.01
KCA1 240743Z 06005KT 15/15 A2994 RMK A01 T01490145  RH  098%=      5-min Rain = 0
KCA1 240744Z 06007KT 15/15 A2994 RMK A01 T01490146  RH  098%=      5-min Rain = 0
KCA1 240745Z 06007KT 15/15 A2994 RMK A01 T01490147  RH  098%=      5-min Rain = 0
KCA1 240746Z 05008KT 15/15 A2994 RMK A01 T01490147  RH  099%=      5-min Rain = 0
KCA1 240747Z 05009KT 15/15 A2994 RMK A01 T01490147  RH  099%=      5-min Rain = 0.01
KCA1 240748Z 05008KT 15/15 A2994 RMK A01 T01480147  RH  099%=      5-min Rain = 0.01
KCA1 240749Z 05006KT 15/15 A2995 RMK A01 T01490147  RH  099%=      5-min Rain = 0
KCA1 240750Z 05005KT 15/15 A2995 RMK A01 T01490148  RH  099%=      5-min Rain = 0
KCA1 240751Z 05006KT 15/15 A2995 RMK A01 T01480147  RH  099%=      5-min Rain = 0
KCA1 240752Z 06006KT 15/15 A2995 RMK A01 T01490147  RH  099%=      5-min Rain = 0.01
KCA1 240753Z 07007KT 15/15 A2995 RMK A01 T01490147  RH  099%=      5-min Rain = 0
KCA1 240754Z 07008KT 15/15 A2994 RMK A01 T01490148  RH  099%=      5-min Rain = 0
KCA1 240755Z 07009KT 15/15 A2994 RMK A01 T01480147  RH  099%=      5-min Rain = 0
KCA1 240756Z 06010KT 15/15 A2993 RMK A01 T01480148  RH  100%=      5-min Rain = 0.01
KCA1 240757Z 05009KT 15/15 A2993 RMK A01 T01480148  RH  100%=      5-min Rain = 0
KCA1 240758Z 05008KT 15/15 A2993 RMK A01 T01480148  RH  100%=      5-min Rain = 0
KCA1 240759Z 05008KT 15/15 A2992 RMK A01 T01480148  RH  100%=      5-min Rain = 0
KCA1 240800Z 06008KT 15/15 A2992 RMK A01 T01480148  RH  100%=      5-min Rain = 0.01
KCA1 240801Z 06009KT 15/15 A2991 RMK A01 T01480148  RH  100%=      5-min Rain = 0
KCA1 240802Z 05007KT 15/15 A2992 RMK A01 T01480148  RH  100%=      5-min Rain = 0
KCA1 240803Z 06005KT 15/15 A2992 RMK A01 T01480148  RH  100%=      5-min Rain = 0
KCA1 240804Z 06004KT 15/15 A2993 RMK A01 T01490149  RH  100%=      5-min Rain = 0
KCA1 240805Z 08003KT 15/15 A2994 RMK A01 T01490149  RH  100%=      5-min Rain = 0.01
KCA1 240806Z 10002KT 15/15 A2994 RMK A01 T01490149  RH  100%=      5-min Rain = 0
KCA1 240807Z 12002KT 15/15 A2994 RMK A01 T01490149  RH  100%=      5-min Rain = 0
KCA1 240808Z 13003KT 15/15 A2994 RMK A01 T01490149  RH  100%=      5-min Rain = 0
KCA1 240809Z 14004KT 15/15 A2994 RMK A01 T01490150  RH  100%=      5-min Rain = 0
KCA1 240810Z 13004KT 15/15 A2994 RMK A01 T01500150  RH  100%=      5-min Rain = 0.01
KCA1 240811Z 14004KT 15/15 A2994 RMK A01 T01500150  RH  100%=      5-min Rain = 0
KCA1 240812Z 17005KT 15/15 A2994 RMK A01 T01510151  RH  100%=      5-min Rain = 0
KCA1 240813Z 17005KT 15/15 A2995 RMK A01 T01520152  RH  100%=      5-min Rain = 0.01
KCA1 240814Z 17006KT 15/15 A2995 RMK A01 T01540154  RH  100%=      5-min Rain = 0
KCA1 240815Z 19005KT 16/16 A2995 RMK A01 T01570156  RH  099%=      5-min Rain = 0.01
KCA1 240816Z 20004KT 16/16 A2995 RMK A01 T01580155  RH  098%=      5-min Rain = 0
KCA1 240817Z 23004KT 16/16 A2996 RMK A01 T01590155  RH  097%=      5-min Rain = 0.01
KCA1 240818Z 28004KT 16/16 A2996 RMK A01 T01590155  RH  097%=      5-min Rain = 0
KCA1 240819Z 31005KT 16/15 A2996 RMK A01 T01580154  RH  097%=      5-min Rain = 0.01
KCA1 240820Z 32004KT 16/15 A2996 RMK A01 T01560153  RH  098%=      5-min Rain = 0
KCA1 240821Z 33002KT 16/15 A2996 RMK A01 T01550153  RH  098%=      5-min Rain = 0
KCA1 240822Z 36001KT 15/15 A2996 RMK A01 T01540152  RH  099%=      5-min Rain = 0.01
KCA1 240823Z 11002KT 15/15 A2996 RMK A01 T01540153  RH  099%=      5-min Rain = 0
KCA1 240824Z 12003KT 15/15 A2995 RMK A01 T01540153  RH  100%=      5-min Rain = 0
KCA1 240825Z 12006KT 15/15 A2995 RMK A01 T01540154  RH  100%=      5-min Rain = 0
KCA1 240826Z 11007KT 15/15 A2995 RMK A01 T01540154  RH  100%=      5-min Rain = 0
KCA1 240827Z 11007KT 15/16 A2995 RMK A01 T01540155  RH  100%=      5-min Rain = 0.01
KCA1 240828Z 12008KT 15/15 A2994 RMK A01 T01540154  RH  100%=      5-min Rain = 0
KCA1 240829Z 11008KT 15/15 A2994 RMK A01 T01540154  RH  100%=      5-min Rain = 0
KCA1 240830Z 10008KT 15/15 A2994 RMK A01 T01540154  RH  100%=      5-min Rain = 0
KCA1 240831Z 10008KT 15/15 A2994 RMK A01 T01540154  RH  100%=      5-min Rain = 0.01
KCA1 240832Z 09008KT 15/15 A2994 RMK A01 T01540154  RH  100%=      5-min Rain = 0
KCA1 240833Z 09009KT 15/15 A2993 RMK A01 T01540154  RH  100%=      5-min Rain = 0
KCA1 240834Z 09010KT 15/15 A2993 RMK A01 T01540154  RH  100%=      5-min Rain = 0
KCA1 240835Z 09008KT 15/15 A2993 RMK A01 T01540154  RH  100%=      5-min Rain = 0
KCA1 240836Z 08008KT 15/15 A2993 RMK A01 T01540154  RH  100%=      5-min Rain = 0.01
KCA1 240837Z 08008KT 15/15 A2993 RMK A01 T01540154  RH  100%=      5-min Rain = 0
KCA1 240838Z 08008KT 15/15 A2993 RMK A01 T01540154  RH  100%=      5-min Rain = 0
KCA1 240839Z 08008KT 15/15 A2992 RMK A01 T01540154  RH  100%=      5-min Rain = 0
KCA1 240840Z 08008KT 15/16 A2992 RMK A01 T01540155  RH  100%=      5-min Rain = 0
KCA1 240841Z 09008KT 15/16 A2992 RMK A01 T01540155  RH  100%=      5-min Rain = 0
KCA1 240842Z 08009KT 16/16 A2991 RMK A01 T01550155  RH  100%=      5-min Rain = 0
KCA1 240843Z 08009KT 16/16 A2991 RMK A01 T01550155  RH  100%=      5-min Rain = 0.01
KCA1 240844Z 07010KT 16/16 A299 RMK A01 T01550155  RH  100%=      5-min Rain = 0
KCA1 240845Z 08008KT 16/16 A299 RMK A01 T01550155  RH  100%=      5-min Rain = 0
KCA1 240846Z 07008KT 16/16 A299 RMK A01 T01550155  RH  100%=      5-min Rain = 0
KCA1 240847Z 07009KT 16/16 A2989 RMK A01 T01550156  RH  100%=      5-min Rain = 0
KCA1 240848Z 07005KT 16/16 A2989 RMK A01 T01550155  RH  100%=      5-min Rain = 0
KCA1 240849Z 29014G26KT 16/16 A2991 RMK A01 T01560156  RH  100%=      5-min Rain = 0
KCA1 240850Z 30020KT 16/16 A2992 RMK A01 T01570156  RH  100%=      5-min Rain = 0
KCA1 240851Z 28020KT 16/16 A2992 RMK A01 T01580156  RH  099%=      5-min Rain = 0
KCA1 240852Z 24005G20KT 16/15 A299 RMK A01 T01620153  RH  094%=      5-min Rain = 0
KCA1 240853Z 14003KT 17/15 A2988 RMK A01 T01700148  RH  087%=      5-min Rain = 0
KCA1 240854Z 11002KT 18/15 A2987 RMK A01 T01750146  RH  083%=      5-min Rain = 0
KCA1 240855Z 27002G7KT 18/15 A2988 RMK A01 T01780146  RH  082%=      5-min Rain = 0
KCA1 240856Z 28009KT 18/15 A2989 RMK A01 T01790149  RH  083%=      5-min Rain = 0
KCA1 240857Z 28013KT 18/15 A2989 RMK A01 T01770150  RH  085%=      5-min Rain = 0
KCA1 240858Z 28008KT 17/15 A2989 RMK A01 T01720150  RH  087%=      5-min Rain = 0
KCA1 240859Z 27005KT 17/15 A2989 RMK A01 T01700150  RH  088%=      5-min Rain = 0
KCA1 240900Z 25004KT 17/15 A2989 RMK A01 T01680151  RH  089%=      5-min Rain = 0
KCA1 240901Z 25001KT 17/15 A2989 RMK A01 T01680152  RH  090%=      5-min Rain = 0
KCA1 240902Z 01001KT 17/15 A2989 RMK A01 T01670152  RH  091%=      5-min Rain = 0
KCA1 240903Z 29000KT 17/15 A299 RMK A01 T01670152  RH  091%=      5-min Rain = 0
KCA1 240904Z 35002KT 17/15 A299 RMK A01 T01660152  RH  091%=      5-min Rain = 0
KCA1 240905Z 01002KT 17/15 A299 RMK A01 T01660152  RH  091%=      5-min Rain = 0
KCA1 240906Z 07003KT 17/15 A2989 RMK A01 T01670151  RH  091%=      5-min Rain = 0
KCA1 240907Z 10003KT 17/15 A2989 RMK A01 T01660151  RH  091%=      5-min Rain = 0
KCA1 240908Z 10005KT 17/15 A2988 RMK A01 T01670150  RH  090%=      5-min Rain = 0
KCA1 240909Z 11006KT 17/15 A2988 RMK A01 T01680149  RH  089%=      5-min Rain = 0
KCA1 240910Z 11006KT 17/15 A2987 RMK A01 T01680152  RH  090%=      5-min Rain = 0
KCA1 240911Z 10005KT 17/15 A2987 RMK A01 T01670153  RH  091%=      5-min Rain = 0
KCA1 240912Z 09004KT 17/15 A2987 RMK A01 T01650153  RH  092%=      5-min Rain = 0
KCA1 240913Z 08004KT 17/15 A2987 RMK A01 T01650153  RH  093%=      5-min Rain = 0
KCA1 240914Z 04004KT 16/15 A2987 RMK A01 T01640153  RH  093%=      5-min Rain = 0
KCA1 240915Z 04005KT 16/15 A2986 RMK A01 T01630153  RH  094%=      5-min Rain = 0
KCA1 240916Z 03006KT 16/15 A2986 RMK A01 T01630154  RH  094%=      5-min Rain = 0
KCA1 240917Z 03006KT 16/15 A2986 RMK A01 T01620153  RH  094%=      5-min Rain = 0
KCA1 240918Z 04007KT 16/15 A2986 RMK A01 T01620153  RH  095%=      5-min Rain = 0
KCA1 240919Z 05007KT 16/15 A2985 RMK A01 T01610153  RH  095%=      5-min Rain = 0
KCA1 240920Z 06009KT 16/15 A2985 RMK A01 T01610154  RH  095%=      5-min Rain = 0
KCA1 240921Z 06010KT 16/15 A2984 RMK A01 T01610154  RH  095%=      5-min Rain = 0
KCA1 240922Z 06010KT 16/15 A2984 RMK A01 T01610154  RH  095%=      5-min Rain = 0
KCA1 240923Z 06011KT 16/15 A2984 RMK A01 T01610154  RH  096%=      5-min Rain = 0
KCA1 240924Z 06011KT 16/15 A2984 RMK A01 T01610154  RH  096%=      5-min Rain = 0
KCA1 240925Z 06011KT 16/15 A2984 RMK A01 T01610153  RH  095%=      5-min Rain = 0
KCA1 240926Z 06011KT 16/15 A2983 RMK A01 T01610154  RH  095%=      5-min Rain = 0
KCA1 240927Z 05009KT 16/15 A2984 RMK A01 T01620153  RH  095%=      5-min Rain = 0
KCA1 240928Z 02005KT 16/15 A2986 RMK A01 T01620153  RH  094%=      5-min Rain = 0
KCA1 240929Z 28014G23KT 16/15 A2989 RMK A01 T01620153  RH  094%=      5-min Rain = 0
KCA1 240930Z 28023G29KT 16/15 A2991 RMK A01 T01620153  RH  094%=      5-min Rain = 0
KCA1 240931Z 28024G29KT 16/15 A2991 RMK A01 T01600149  RH  093%=      5-min Rain = 0
KCA1 240932Z 29012G18KT 16/15 A2991 RMK A01 T01580147  RH  093%=      5-min Rain = 0
KCA1 240933Z 28016KT 16/15 A299 RMK A01 T01580146  RH  093%=      5-min Rain = 0
KCA1 240934Z 28017KT 16/15 A2991 RMK A01 T01580146  RH  093%=      5-min Rain = 0
KCA1 240935Z 29016KT 16/15 A2992 RMK A01 T01590146  RH  092%=      5-min Rain = 0
KCA1 240936Z 30012KT 16/15 A2992 RMK A01 T01600146  RH  092%=      5-min Rain = 0
KCA1 240937Z 30008KT 16/15 A2992 RMK A01 T01600145  RH  091%=      5-min Rain = 0
KCA1 240938Z 31006KT 16/15 A2992 RMK A01 T01600145  RH  091%=      5-min Rain = 0
KCA1 240939Z 30008KT 16/15 A2992 RMK A01 T01590145  RH  091%=      5-min Rain = 0
KCA1 240940Z 30007KT 16/15 A2993 RMK A01 T01580145  RH  092%=      5-min Rain = 0
KCA1 240941Z 33003KT 16/14 A2992 RMK A01 T01570144  RH  092%=      5-min Rain = 0
KCA1 240942Z 02002KT 16/14 A299 RMK A01 T01570143  RH  092%=      5-min Rain = 0
KCA1 240943Z 02003KT 16/14 A2989 RMK A01 T01570143  RH  092%=      5-min Rain = 0
KCA1 240944Z 36003KT 16/14 A2989 RMK A01 T01570144  RH  092%=      5-min Rain = 0
KCA1 240945Z 33003KT 16/14 A2989 RMK A01 T01570144  RH  092%=      5-min Rain = 0
KCA1 240946Z 33004KT 16/15 A2989 RMK A01 T01560145  RH  093%=      5-min Rain = 0
KCA1 240947Z 33004KT 16/15 A2989 RMK A01 T01560145  RH  093%=      5-min Rain = 0
KCA1 240948Z 32006KT 16/15 A2989 RMK A01 T01550145  RH  094%=      5-min Rain = 0
KCA1 240949Z 32007KT 16/15 A2989 RMK A01 T01550146  RH  094%=      5-min Rain = 0
KCA1 240950Z 33007KT 15/15 A2988 RMK A01 T01540146  RH  095%=      5-min Rain = 0
KCA1 240951Z 33007KT 15/15 A2988 RMK A01 T01540146  RH  095%=      5-min Rain = 0
KCA1 240952Z 33007KT 15/15 A2987 RMK A01 T01540146  RH  095%=      5-min Rain = 0
KCA1 240953Z 33007KT 16/15 A2988 RMK A01 T01550147  RH  095%=      5-min Rain = 0
KCA1 240954Z 32007KT 15/15 A2988 RMK A01 T01540146  RH  095%=      5-min Rain = 0
KCA1 240955Z 32005KT 15/15 A2989 RMK A01 T01540146  RH  095%=      5-min Rain = 0
KCA1 240956Z 33005KT 15/15 A2989 RMK A01 T01540146  RH  095%=      5-min Rain = 0
KCA1 240957Z 34005KT 15/15 A2988 RMK A01 T01540145  RH  095%=      5-min Rain = 0
KCA1 240958Z 33004KT 15/15 A2988 RMK A01 T01540146  RH  095%=      5-min Rain = 0
KCA1 240959Z 33003KT 15/15 A2989 RMK A01 T01540146  RH  095%=      5-min Rain = 0
KCA1 241000Z 35002KT 15/15 A2988 RMK A01 T01540146  RH  095%=      5-min Rain = 0
KCA1 241001Z 35003KT 15/15 A2988 RMK A01 T01540146  RH  095%=      5-min Rain = 0
KCA1 241002Z 36002KT 15/15 A2988 RMK A01 T01540145  RH  094%=      5-min Rain = 0
KCA1 241003Z 34002KT 15/14 A2989 RMK A01 T01540144  RH  094%=      5-min Rain = 0
KCA1 241004Z 34004KT 16/14 A2988 RMK A01 T01550144  RH  093%=      5-min Rain = 0
KCA1 241005Z 34006KT 16/15 A2988 RMK A01 T01550145  RH  094%=      5-min Rain = 0
KCA1 241006Z 34006KT 16/15 A2988 RMK A01 T01550146  RH  094%=      5-min Rain = 0
KCA1 241007Z 34005KT 15/15 A2988 RMK A01 T01540145  RH  094%=      5-min Rain = 0
KCA1 241008Z 34004KT 15/14 A2989 RMK A01 T01540144  RH  094%=      5-min Rain = 0
KCA1 241009Z 33005KT 15/14 A2989 RMK A01 T01540144  RH  094%=      5-min Rain = 0
KCA1 241010Z 33006KT 15/14 A2989 RMK A01 T01530144  RH  094%=      5-min Rain = 0
KCA1 241011Z 33005KT 15/14 A2989 RMK A01 T01530144  RH  094%=      5-min Rain = 0
KCA1 241012Z 33004KT 15/14 A2989 RMK A01 T01530144  RH  094%=      5-min Rain = 0
KCA1 241013Z 33004KT 15/14 A2989 RMK A01 T01530144  RH  094%=      5-min Rain = 0
KCA1 241014Z 31004KT 15/14 A299 RMK A01 T01520143  RH  094%=      5-min Rain = 0
KCA1 241015Z 30004KT 15/14 A299 RMK A01 T01520143  RH  095%=      5-min Rain = 0
KCA1 241016Z 27004KT 15/14 A299 RMK A01 T01520143  RH  095%=      5-min Rain = 0
KCA1 241017Z 26004KT 15/14 A299 RMK A01 T01510144  RH  095%=      5-min Rain = 0
KCA1 241018Z 26004KT 15/15 A2991 RMK A01 T01510145  RH  097%=      5-min Rain = 0
KCA1 241019Z 26007KT 15/15 A2991 RMK A01 T01500146  RH  097%=      5-min Rain = 0
KCA1 241020Z 25009KT 15/15 A2992 RMK A01 T01490146  RH  098%=      5-min Rain = 0
KCA1 241021Z 25008KT 15/15 A2992 RMK A01 T01490147  RH  099%=      5-min Rain = 0
KCA1 241022Z 25008KT 15/15 A2992 RMK A01 T01480146  RH  099%=      5-min Rain = 0
KCA1 241023Z 26009KT 15/15 A2992 RMK A01 T01470146  RH  099%=      5-min Rain = 0
KCA1 241024Z 26008KT 15/15 A2992 RMK A01 T01470145  RH  099%=      5-min Rain = 0
KCA1 241025Z 26010KT 15/15 A2992 RMK A01 T01460145  RH  099%=      5-min Rain = 0
KCA1 241026Z 27010KT 15/14 A2992 RMK A01 T01450144  RH  099%=      5-min Rain = 0
KCA1 241027Z 28011KT 14/14 A2992 RMK A01 T01440143  RH  099%=      5-min Rain = 0
KCA1 241028Z 28009KT 14/14 A2992 RMK A01 T01440143  RH  099%=      5-min Rain = 0
KCA1 241029Z 29011KT 14/14 A2992 RMK A01 T01430143  RH  100%=      5-min Rain = 0
KCA1 241030Z 29011KT 14/14 A2992 RMK A01 T01430142  RH  100%=      5-min Rain = 0
KCA1 241031Z 30012KT 14/14 A2992 RMK A01 T01420141  RH  100%=      5-min Rain = 0
KCA1 241032Z 30012KT 14/14 A2992 RMK A01 T01410141  RH  100%=      5-min Rain = 0
KCA1 241033Z 30012KT 14/14 A2992 RMK A01 T01410140  RH  100%=      5-min Rain = 0
KCA1 241034Z 30011KT 14/14 A2992 RMK A01 T01400140  RH  100%=      5-min Rain = 0
KCA1 241035Z 30011KT 14/14 A2992 RMK A01 T01400140  RH  100%=      5-min Rain = 0
KCA1 241036Z 31012KT 14/14 A2992 RMK A01 T01400140  RH  100%=      5-min Rain = 0
KCA1 241037Z 31011KT 14/14 A2992 RMK A01 T01400140  RH  100%=      5-min Rain = 0
KCA1 241038Z 31011KT 14/14 A2993 RMK A01 T01390139  RH  100%=      5-min Rain = 0
KCA1 241039Z 30011KT 14/14 A2993 RMK A01 T01390139  RH  100%=      5-min Rain = 0
KCA1 241040Z 31010KT 14/14 A2993 RMK A01 T01380139  RH  100%=      5-min Rain = 0
KCA1 241041Z 31008KT 14/14 A2993 RMK A01 T01390139  RH  100%=      5-min Rain = 0
KCA1 241042Z 30009KT 14/14 A2993 RMK A01 T01390139  RH  100%=      5-min Rain = 0
KCA1 241043Z 31008KT 14/14 A2993 RMK A01 T01380138  RH  100%=      5-min Rain = 0
KCA1 241044Z 31007KT 14/14 A2993 RMK A01 T01380138  RH  100%=      5-min Rain = 0
KCA1 241045Z 32007KT 14/14 A2993 RMK A01 T01380138  RH  100%=      5-min Rain = 0
KCA1 241046Z 31006KT 14/14 A2993 RMK A01 T01380138  RH  100%=      5-min Rain = 0
KCA1 241047Z 31005KT 14/14 A2994 RMK A01 T01380138  RH  100%=      5-min Rain = 0
KCA1 241048Z 30005KT 14/14 A2994 RMK A01 T01380138  RH  100%=      5-min Rain = 0
KCA1 241049Z 31006KT 14/14 A2994 RMK A01 T01370137  RH  100%=      5-min Rain = 0
KCA1 241050Z 31008KT 14/14 A2994 RMK A01 T01370137  RH  100%=      5-min Rain = 0
KCA1 241051Z 32007KT 14/14 A2994 RMK A01 T01370136  RH  099%=      5-min Rain = 0
KCA1 241052Z 32007KT 14/14 A2994 RMK A01 T01370136  RH  099%=      5-min Rain = 0
KCA1 241053Z 32009KT 14/14 A2994 RMK A01 T01370136  RH  099%=      5-min Rain = 0
KCA1 241054Z 31008KT 14/14 A2994 RMK A01 T01370136  RH  099%=      5-min Rain = 0
KCA1 241055Z 32007KT 14/14 A2994 RMK A01 T01370136  RH  099%=      5-min Rain = 0
KCA1 241056Z 32008KT 14/14 A2993 RMK A01 T01370135  RH  099%=      5-min Rain = 0
KCA1 241057Z 32008KT 14/14 A2993 RMK A01 T01370135  RH  099%=      5-min Rain = 0
KCA1 241058Z 32008KT 14/14 A2994 RMK A01 T01360135  RH  099%=      5-min Rain = 0
KCA1 241059Z 31007KT 14/14 A2994 RMK A01 T01360135  RH  099%=      5-min Rain = 0
KCA1 241100Z 31007KT 14/14 A2994 RMK A01 T01360135  RH  099%=      5-min Rain = 0
KCA1 241101Z 32008KT 14/14 A2993 RMK A01 T01360135  RH  099%=      5-min Rain = 0
KCA1 241102Z 32008KT 14/13 A2993 RMK A01 T01360134  RH  099%=      5-min Rain = 0
KCA1 241103Z 32007KT 14/14 A2994 RMK A01 T01360135  RH  099%=      5-min Rain = 0
KCA1 241104Z 32007KT 14/14 A2993 RMK A01 T01360135  RH  099%=      5-min Rain = 0
KCA1 241105Z 32006KT 14/13 A2993 RMK A01 T01350134  RH  099%=      5-min Rain = 0
KCA1 241106Z 32005KT 14/13 A2993 RMK A01 T01350134  RH  099%=      5-min Rain = 0
KCA1 241107Z 32006KT 14/13 A2993 RMK A01 T01360134  RH  099%=      5-min Rain = 0
KCA1 241108Z 31006KT 14/13 A2994 RMK A01 T01350133  RH  099%=      5-min Rain = 0
KCA1 241109Z 30007KT 14/13 A2994 RMK A01 T01350133  RH  099%=      5-min Rain = 0
KCA1 241110Z 29007KT 14/13 A2995 RMK A01 T01350134  RH  099%=      5-min Rain = 0
KCA1 241111Z 29007KT 14/13 A2995 RMK A01 T01350134  RH  099%=      5-min Rain = 0
KCA1 241112Z 30005KT 13/13 A2995 RMK A01 T01340133  RH  099%=      5-min Rain = 0
KCA1 241113Z 30006KT 13/13 A2995 RMK A01 T01340134  RH  100%=      5-min Rain = 0
KCA1 241114Z 30005KT 13/13 A2995 RMK A01 T01340134  RH  100%=      5-min Rain = 0
KCA1 241115Z 29004KT 13/13 A2995 RMK A01 T01340134  RH  100%=      5-min Rain = 0
KCA1 241116Z 29004KT 13/13 A2995 RMK A01 T01340134  RH  100%=      5-min Rain = 0
KCA1 241117Z 28003KT 13/13 A2995 RMK A01 T01340133  RH  100%=      5-min Rain = 0
KCA1 241118Z 26003KT 13/13 A2996 RMK A01 T01330133  RH  100%=      5-min Rain = 0
KCA1 241119Z 25003KT 13/13 A2996 RMK A01 T01330133  RH  100%=      5-min Rain = 0
KCA1 241120Z 24002KT 13/13 A2996 RMK A01 T01330133  RH  100%=      5-min Rain = 0
KCA1 241121Z 22002KT 13/13 A2996 RMK A01 T01340134  RH  100%=      5-min Rain = 0
KCA1 241122Z 22002KT 13/13 A2996 RMK A01 T01340134  RH  100%=      5-min Rain = 0
KCA1 241123Z 20002KT 13/13 A2996 RMK A01 T01340134  RH  100%=      5-min Rain = 0
KCA1 241124Z 19002KT 13/13 A2996 RMK A01 T01340134  RH  100%=      5-min Rain = 0
KCA1 241125Z 18002KT 13/13 A2996 RMK A01 T01330133  RH  100%=      5-min Rain = 0
KCA1 241126Z 17001KT 13/13 A2996 RMK A01 T01340134  RH  100%=      5-min Rain = 0
KCA1 241127Z 14000KT 13/13 A2995 RMK A01 T01330133  RH  100%=      5-min Rain = 0
KCA1 241128Z 10000KT 13/13 A2995 RMK A01 T01340134  RH  100%=      5-min Rain = 0
KCA1 241129Z 08001KT 13/13 A2994 RMK A01 T01330133  RH  100%=      5-min Rain = 0
KCA1 241130Z 08001KT 13/13 A2994 RMK A01 T01340134  RH  100%=      5-min Rain = 0
KCA1 241131Z 09002KT 13/13 A2995 RMK A01 T01340134  RH  100%=      5-min Rain = 0
KCA1 241132Z 08002KT 13/13 A2995 RMK A01 T01340134  RH  100%=      5-min Rain = 0
KCA1 241133Z 07003KT 13/13 A2995 RMK A01 T01330133  RH  100%=      5-min Rain = 0
KCA1 241134Z 07003KT 13/13 A2995 RMK A01 T01340134  RH  100%=      5-min Rain = 0
KCA1 241135Z 09002KT 13/13 A2995 RMK A01 T01340134  RH  100%=      5-min Rain = 0
KCA1 241136Z 11002KT 13/13 A2996 RMK A01 T01340134  RH  100%=      5-min Rain = 0
KCA1 241137Z 12002KT 13/13 A2996 RMK A01 T01330134  RH  100%=      5-min Rain = 0
KCA1 241138Z 12002KT 13/13 A2996 RMK A01 T01330134  RH  100%=      5-min Rain = 0
KCA1 241139Z 13001KT 13/13 A2996 RMK A01 T01340134  RH  100%=      5-min Rain = 0
KCA1 241140Z 15000KT 13/13 A2996 RMK A01 T01330133  RH  100%=      5-min Rain = 0
KCA1 241141Z 15000KT 13/13 A2996 RMK A01 T01330133  RH  100%=      5-min Rain = 0
KCA1 241142Z 15001KT 13/13 A2996 RMK A01 T01330133  RH  100%=      5-min Rain = 0
KCA1 241143Z 16002KT 13/13 A2996 RMK A01 T01330133  RH  100%=      5-min Rain = 0
KCA1 241144Z 17002KT 13/13 A2996 RMK A01 T01330133  RH  100%=      5-min Rain = 0
KCA1 241145Z 18002KT 13/13 A2996 RMK A01 T01330133  RH  100%=      5-min Rain = 0
KCA1 241146Z 18001KT 13/13 A2996 RMK A01 T01330134  RH  100%=      5-min Rain = 0
KCA1 241147Z 18001KT 13/13 A2996 RMK A01 T01330134  RH  100%=      5-min Rain = 0
KCA1 241148Z 17001KT 13/13 A2996 RMK A01 T01330133  RH  100%=      5-min Rain = 0
KCA1 241149Z 17002KT 13/13 A2996 RMK A01 T01340134  RH  100%=      5-min Rain = 0
KCA1 241150Z 17002KT 13/13 A2996 RMK A01 T01340134  RH  100%=      5-min Rain = 0
KCA1 241151Z 16002KT 13/13 A2996 RMK A01 T01330133  RH  100%=      5-min Rain = 0
KCA1 241152Z 16003KT 13/13 A2997 RMK A01 T01330134  RH  100%=      5-min Rain = 0
KCA1 241153Z 15003KT 13/13 A2997 RMK A01 T01330134  RH  100%=      5-min Rain = 0
KCA1 241154Z 15003KT 13/13 A2997 RMK A01 T01330134  RH  100%=      5-min Rain = 0
KCA1 241155Z 15002KT 13/13 A2996 RMK A01 T01340134  RH  100%=      5-min Rain = 0
KCA1 241156Z 15001KT 13/13 A2996 RMK A01 T01330134  RH  100%=      5-min Rain = 0
KCA1 241157Z 15000KT 13/13 A2996 RMK A01 T01330134  RH  100%=      5-min Rain = 0
KCA1 241158Z 00000KT 13/13 A2996 RMK A01 T01330134  RH  100%=      5-min Rain = 0
KCA1 241159Z 17000KT 13/13 A2996 RMK A01 T01340134  RH  100%=      5-min Rain = 0
KCA1 241200Z 17002KT 13/13 A2996 RMK A01 T01340134  RH  100%=      5-min Rain = 0
KCA1 241201Z 17002KT 13/13 A2996 RMK A01 T01330133  RH  100%=      5-min Rain = 0
KCA1 241202Z 18001KT 13/13 A2996 RMK A01 T01340134  RH  100%=      5-min Rain = 0
KCA1 241203Z 18000KT 13/13 A2996 RMK A01 T01340134  RH  100%=      5-min Rain = 0
KCA1 241204Z 00000KT 13/13 A2996 RMK A01 T01330134  RH  100%=      5-min Rain = 0
KCA1 241205Z 05001KT 13/13 A2995 RMK A01 T01340134  RH  100%=      5-min Rain = 0
KCA1 241206Z 05002KT 13/13 A2995 RMK A01 T01330134  RH  100%=      5-min Rain = 0
KCA1 241207Z 05002KT 13/13 A2995 RMK A01 T01330133  RH  100%=      5-min Rain = 0
KCA1 241208Z 03002KT 13/13 A2994 RMK A01 T01330134  RH  100%=      5-min Rain = 0
KCA1 241209Z 36002KT 13/13 A2994 RMK A01 T01340134  RH  100%=      5-min Rain = 0
KCA1 241210Z 34002KT 13/13 A2994 RMK A01 T01340134  RH  100%=      5-min Rain = 0
KCA1 241211Z 34003KT 13/13 A2994 RMK A01 T01330133  RH  100%=      5-min Rain = 0
KCA1 241212Z 33004KT 13/13 A2994 RMK A01 T01340134  RH  100%=      5-min Rain = 0
KCA1 241213Z 32004KT 13/13 A2994 RMK A01 T01340134  RH  100%=      5-min Rain = 0
KCA1 241214Z 32005KT 13/13 A2994 RMK A01 T01340134  RH  100%=      5-min Rain = 0
KCA1 241215Z 32005KT 13/13 A2994 RMK A01 T01330134  RH  100%=      5-min Rain = 0
KCA1 241216Z 32005KT 13/13 A2994 RMK A01 T01330134  RH  100%=      5-min Rain = 0
KCA1 241217Z 32005KT 13/13 A2994 RMK A01 T01340134  RH  100%=      5-min Rain = 0
KCA1 241218Z 32005KT 13/13 A2994 RMK A01 T01330134  RH  100%=      5-min Rain = 0
KCA1 241219Z 31005KT 13/13 A2995 RMK A01 T01340134  RH  100%=      5-min Rain = 0
KCA1 241220Z 29004KT 13/13 A2995 RMK A01 T01340134  RH  100%=      5-min Rain = 0
KCA1 241221Z 28004KT 13/13 A2996 RMK A01 T01330133  RH  100%=      5-min Rain = 0
KCA1 241222Z 26004KT 13/13 A2996 RMK A01 T01340134  RH  100%=      5-min Rain = 0
KCA1 241223Z 25004KT 13/13 A2997 RMK A01 T01340134  RH  100%=      5-min Rain = 0
KCA1 241224Z 25005KT 13/13 A2997 RMK A01 T01340134  RH  100%=      5-min Rain = 0
KCA1 241225Z 25005KT 13/14 A2997 RMK A01 T01340135  RH  100%=      5-min Rain = 0
KCA1 241226Z 26005KT 14/14 A2997 RMK A01 T01350135  RH  100%=      5-min Rain = 0
KCA1 241227Z 27004KT 14/14 A2997 RMK A01 T01350135  RH  100%=      5-min Rain = 0
KCA1 241228Z 28006KT 14/14 A2996 RMK A01 T01350135  RH  100%=      5-min Rain = 0
KCA1 241229Z 28006KT 14/14 A2996 RMK A01 T01350135  RH  100%=      5-min Rain = 0
KCA1 241230Z 28006KT 13/14 A2996 RMK A01 T01340135  RH  100%=      5-min Rain = 0
KCA1 241231Z 28007KT 13/13 A2996 RMK A01 T01340134  RH  100%=      5-min Rain = 0
KCA1 241232Z 28006KT 13/13 A2996 RMK A01 T01340134  RH  100%=      5-min Rain = 0
KCA1 241233Z 28005KT 13/13 A2996 RMK A01 T01340134  RH  100%=      5-min Rain = 0
KCA1 241234Z 28005KT 13/13 A2996 RMK A01 T01340134  RH  100%=      5-min Rain = 0
KCA1 241235Z 29005KT 13/13 A2996 RMK A01 T01340134  RH  100%=      5-min Rain = 0
KCA1 241236Z 29005KT 13/13 A2996 RMK A01 T01340134  RH  100%=      5-min Rain = 0
KCA1 241237Z 28006KT 13/13 A2996 RMK A01 T01340134  RH  100%=      5-min Rain = 0
KCA1 241238Z 29004KT 13/13 A2996 RMK A01 T01340134  RH  100%=      5-min Rain = 0
KCA1 241239Z 29005KT 13/14 A2996 RMK A01 T01340135  RH  100%=      5-min Rain = 0
KCA1 241240Z 29005KT 14/14 A2996 RMK A01 T01350135  RH  100%=      5-min Rain = 0
KCA1 241241Z 29005KT 14/14 A2997 RMK A01 T01360136  RH  100%=      5-min Rain = 0
KCA1 241242Z 27005KT 14/14 A2997 RMK A01 T01350135  RH  100%=      5-min Rain = 0
KCA1 241243Z 27004KT 14/14 A2997 RMK A01 T01360136  RH  100%=      5-min Rain = 0
KCA1 241244Z 27004KT 14/14 A2997 RMK A01 T01370137  RH  100%=      5-min Rain = 0
KCA1 241245Z 26003KT 14/14 A2997 RMK A01 T01380138  RH  100%=      5-min Rain = 0
KCA1 241246Z 26004KT 14/14 A2997 RMK A01 T01390139  RH  100%=      5-min Rain = 0
KCA1 241247Z 26003KT 14/14 A2997 RMK A01 T01390139  RH  100%=      5-min Rain = 0
KCA1 241248Z 27003KT 14/14 A2997 RMK A01 T01400140  RH  100%=      5-min Rain = 0
KCA1 241249Z 28004KT 14/14 A2997 RMK A01 T01400140  RH  100%=      5-min Rain = 0
KCA1 241250Z 27004KT 14/14 A2997 RMK A01 T01400140  RH  100%=      5-min Rain = 0
KCA1 241251Z 27002KT 14/14 A2997 RMK A01 T01390138  RH  099%=      5-min Rain = 0
KCA1 241252Z 28003KT 14/14 A2997 RMK A01 T01390139  RH  100%=      5-min Rain = 0
KCA1 241253Z 29003KT 14/14 A2997 RMK A01 T01390138  RH  099%=      5-min Rain = 0
KCA1 241254Z 27004KT 14/14 A2997 RMK A01 T01390138  RH  099%=      5-min Rain = 0
KCA1 241255Z 27005KT 14/14 A2997 RMK A01 T01390138  RH  099%=      5-min Rain = 0
KCA1 241256Z 28006KT 14/14 A2997 RMK A01 T01390138  RH  099%=      5-min Rain = 0
KCA1 241257Z 28005KT 14/14 A2997 RMK A01 T01390138  RH  099%=      5-min Rain = 0
KCA1 241258Z 27005KT 14/14 A2997 RMK A01 T01390137  RH  099%=      5-min Rain = 0
KCA1 241259Z 27004KT 14/14 A2997 RMK A01 T01390137  RH  099%=      5-min Rain = 0
KCA1 241300Z 28004KT 14/14 A2997 RMK A01 T01390137  RH  099%=      5-min Rain = 0
KCA1 241301Z 29004KT 14/14 A2997 RMK A01 T01390136  RH  099%=      5-min Rain = 0
KCA1 241302Z 30004KT 14/14 A2997 RMK A01 T01380136  RH  098%=      5-min Rain = 0
KCA1 241303Z 30004KT 14/14 A2997 RMK A01 T01390136  RH  098%=      5-min Rain = 0
KCA1 241304Z 29003KT 14/14 A2997 RMK A01 T01390137  RH  098%=      5-min Rain = 0
KCA1 241305Z 28002KT 14/14 A2997 RMK A01 T01400137  RH  098%=      5-min Rain = 0
KCA1 241306Z 27003KT 14/14 A2997 RMK A01 T01400138  RH  098%=      5-min Rain = 0
KCA1 241307Z 27004KT 14/14 A2997 RMK A01 T01410138  RH  098%=      5-min Rain = 0
KCA1 241308Z 28004KT 14/14 A2997 RMK A01 T01410137  RH  097%=      5-min Rain = 0
KCA1 241309Z 28004KT 14/14 A2997 RMK A01 T01410136  RH  097%=      5-min Rain = 0
KCA1 241310Z 29003KT 14/14 A2997 RMK A01 T01420136  RH  097%=      5-min Rain = 0
KCA1 241311Z 28003KT 14/14 A2997 RMK A01 T01430138  RH  097%=      5-min Rain = 0
KCA1 241312Z 26002KT 15/14 A2997 RMK A01 T01450141  RH  098%=      5-min Rain = 0
KCA1 241313Z 26003KT 15/14 A2997 RMK A01 T01450140  RH  097%=      5-min Rain = 0
KCA1 241314Z 27003KT 15/14 A2997 RMK A01 T01450139  RH  096%=      5-min Rain = 0
KCA1 241315Z 28003KT 15/14 A2997 RMK A01 T01450138  RH  095%=      5-min Rain = 0
KCA1 241316Z 31005KT 14/14 A2997 RMK A01 T01440136  RH  094%=      5-min Rain = 0
KCA1 241317Z 31005KT 14/13 A2997 RMK A01 T01440134  RH  094%=      5-min Rain = 0
KCA1 241318Z 31005KT 14/14 A2996 RMK A01 T01440135  RH  094%=      5-min Rain = 0
KCA1 241319Z 31005KT 14/13 A2996 RMK A01 T01440133  RH  094%=      5-min Rain = 0
KCA1 241320Z 31004KT 14/13 A2996 RMK A01 T01430133  RH  094%=      5-min Rain = 0
KCA1 241321Z 30004KT 14/13 A2996 RMK A01 T01430134  RH  094%=      5-min Rain = 0
KCA1 241322Z 29004KT 14/13 A2997 RMK A01 T01430133  RH  094%=      5-min Rain = 0
KCA1 241323Z 29005KT 14/13 A2997 RMK A01 T01430133  RH  093%=      5-min Rain = 0
KCA1 241324Z 28004KT 14/13 A2997 RMK A01 T01430133  RH  094%=      5-min Rain = 0
KCA1 241325Z 28005KT 14/14 A2997 RMK A01 T01440136  RH  095%=      5-min Rain = 0
KCA1 241326Z 28005KT 14/14 A2997 RMK A01 T01440137  RH  095%=      5-min Rain = 0
KCA1 241327Z 29005KT 15/14 A2997 RMK A01 T01450137  RH  095%=      5-min Rain = 0
KCA1 241328Z 30005KT 15/14 A2997 RMK A01 T01450138  RH  095%=      5-min Rain = 0
KCA1 241329Z 29005KT 15/14 A2997 RMK A01 T01460138  RH  095%=      5-min Rain = 0
KCA1 241330Z 29005KT 15/14 A2997 RMK A01 T01460138  RH  095%=      5-min Rain = 0
KCA1 241331Z 28005KT 15/14 A2997 RMK A01 T01460137  RH  095%=      5-min Rain = 0
KCA1 241332Z 28005KT 15/14 A2997 RMK A01 T01460137  RH  095%=      5-min Rain = 0
KCA1 241333Z 29004KT 15/14 A2997 RMK A01 T01460138  RH  095%=      5-min Rain = 0
KCA1 241334Z 28003KT 15/14 A2997 RMK A01 T01470139  RH  095%=      5-min Rain = 0
KCA1 241335Z 28006KT 15/14 A2997 RMK A01 T01470139  RH  095%=      5-min Rain = 0
KCA1 241336Z 29005KT 15/14 A2997 RMK A01 T01470137  RH  094%=      5-min Rain = 0
KCA1 241337Z 28005KT 15/14 A2997 RMK A01 T01470136  RH  093%=      5-min Rain = 0
KCA1 241338Z 30005KT 15/14 A2997 RMK A01 T01470137  RH  093%=      5-min Rain = 0
KCA1 241339Z 30005KT 15/14 A2997 RMK A01 T01470137  RH  093%=      5-min Rain = 0
KCA1 241340Z 31004KT 15/14 A2996 RMK A01 T01470137  RH  094%=      5-min Rain = 0
KCA1 241341Z 32004KT 15/14 A2996 RMK A01 T01470137  RH  093%=      5-min Rain = 0
KCA1 241342Z 31003KT 15/14 A2996 RMK A01 T01480138  RH  093%=      5-min Rain = 0
KCA1 241343Z 31004KT 15/14 A2996 RMK A01 T01490139  RH  094%=      5-min Rain = 0
KCA1 241344Z 29005KT 15/14 A2996 RMK A01 T01490138  RH  093%=      5-min Rain = 0
KCA1 241345Z 28005KT 15/14 A2996 RMK A01 T01500137  RH  092%=      5-min Rain = 0
KCA1 241346Z 30004KT 15/14 A2996 RMK A01 T01500136  RH  092%=      5-min Rain = 0
KCA1 241347Z 30004KT 15/14 A2996 RMK A01 T01510139  RH  093%=      5-min Rain = 0
KCA1 241348Z 31005KT 15/14 A2996 RMK A01 T01520140  RH  092%=      5-min Rain = 0
KCA1 241349Z 32005KT 15/14 A2996 RMK A01 T01530141  RH  092%=      5-min Rain = 0
KCA1 241350Z 31004KT 15/14 A2996 RMK A01 T01540141  RH  092%=      5-min Rain = 0
KCA1 241351Z 31005KT 16/14 A2996 RMK A01 T01550140  RH  091%=      5-min Rain = 0
KCA1 241352Z 32005KT 16/14 A2996 RMK A01 T01550140  RH  091%=      5-min Rain = 0
KCA1 241353Z 31005KT 16/14 A2996 RMK A01 T01560139  RH  090%=      5-min Rain = 0
KCA1 241354Z 31004KT 16/14 A2996 RMK A01 T01560136  RH  088%=      5-min Rain = 0
KCA1 241355Z 31004KT 16/14 A2996 RMK A01 T01560136  RH  088%=      5-min Rain = 0
KCA1 241356Z 31005KT 16/14 A2996 RMK A01 T01560137  RH  089%=      5-min Rain = 0
KCA1 241357Z 32006KT 16/14 A2996 RMK A01 T01570140  RH  090%=      5-min Rain = 0
KCA1 241358Z 31005KT 16/14 A2996 RMK A01 T01580140  RH  089%=      5-min Rain = 0
KCA1 241359Z 31004KT 16/14 A2996 RMK A01 T01580139  RH  088%=      5-min Rain = 0
KCA1 241400Z 30003KT 16/14 A2996 RMK A01 T01590139  RH  088%=      5-min Rain = 0
KCA1 241401Z 27003KT 16/14 A2996 RMK A01 T01590142  RH  089%=      5-min Rain = 0
KCA1 241402Z 31003KT 16/14 A2996 RMK A01 T01610144  RH  090%=      5-min Rain = 0
KCA1 241403Z 32006KT 16/14 A2996 RMK A01 T01620140  RH  087%=      5-min Rain = 0
KCA1 241404Z 33005KT 16/14 A2996 RMK A01 T01620138  RH  086%=      5-min Rain = 0
KCA1 241405Z 32005KT 16/14 A2996 RMK A01 T01620138  RH  086%=      5-min Rain = 0
KCA1 241406Z 30005KT 16/14 A2996 RMK A01 T01620138  RH  086%=      5-min Rain = 0
KCA1 241407Z 31005KT 16/14 A2997 RMK A01 T01620141  RH  087%=      5-min Rain = 0
KCA1 241408Z 30004KT 16/14 A2997 RMK A01 T01630142  RH  087%=      5-min Rain = 0
KCA1 241409Z 30006KT 17/14 A2996 RMK A01 T01650143  RH  087%=      5-min Rain = 0
KCA1 241410Z 32007KT 17/14 A2996 RMK A01 T01650142  RH  086%=      5-min Rain = 0
KCA1 241411Z 32006KT 17/14 A2997 RMK A01 T01650138  RH  084%=      5-min Rain = 0
KCA1 241412Z 32004KT 17/14 A2997 RMK A01 T01650139  RH  084%=      5-min Rain = 0
KCA1 241413Z 29005KT 17/14 A2997 RMK A01 T01660139  RH  084%=      5-min Rain = 0
KCA1 241414Z 28004KT 17/14 A2997 RMK A01 T01660141  RH  085%=      5-min Rain = 0
KCA1 241415Z 27004KT 17/14 A2997 RMK A01 T01650140  RH  085%=      5-min Rain = 0
KCA1 241416Z 28005KT 16/14 A2997 RMK A01 T01640141  RH  086%=      5-min Rain = 0
KCA1 241417Z 29003KT 16/14 A2997 RMK A01 T01630137  RH  085%=      5-min Rain = 0
KCA1 241418Z 31003KT 16/14 A2997 RMK A01 T01620137  RH  085%=      5-min Rain = 0
KCA1 241419Z 30003KT 16/14 A2997 RMK A01 T01610137  RH  085%=      5-min Rain = 0
KCA1 241420Z 31004KT 16/14 A2998 RMK A01 T01610136  RH  085%=      5-min Rain = 0
KCA1 241421Z 31003KT 16/14 A2998 RMK A01 T01610136  RH  085%=      5-min Rain = 0
KCA1 241422Z 32004KT 16/14 A2998 RMK A01 T01620138  RH  086%=      5-min Rain = 0
KCA1 241423Z 34004KT 16/14 A2998 RMK A01 T01630140  RH  087%=      5-min Rain = 0
KCA1 241424Z 33005KT 16/14 A2998 RMK A01 T01640144  RH  088%=      5-min Rain = 0
KCA1 241425Z 32005KT 16/14 A2998 RMK A01 T01640142  RH  087%=      5-min Rain = 0
KCA1 241426Z 31004KT 17/14 A2998 RMK A01 T01650142  RH  086%=      5-min Rain = 0
KCA1 241427Z 31004KT 17/14 A2998 RMK A01 T01650142  RH  086%=      5-min Rain = 0
KCA1 241428Z 30004KT 17/14 A2998 RMK A01 T01650141  RH  086%=      5-min Rain = 0
KCA1 241429Z 31004KT 17/14 A2998 RMK A01 T01660139  RH  084%=      5-min Rain = 0
KCA1 241430Z 31003KT 17/14 A2998 RMK A01 T01660139  RH  084%=      5-min Rain = 0
KCA1 241431Z 33004KT 17/14 A2998 RMK A01 T01660139  RH  084%=      5-min Rain = 0
KCA1 241432Z 32003KT 17/14 A2998 RMK A01 T01650139  RH  084%=      5-min Rain = 0
KCA1 241433Z 32003KT 17/14 A2998 RMK A01 T01650139  RH  084%=      5-min Rain = 0
KCA1 241434Z 33002KT 17/14 A2998 RMK A01 T01660140  RH  085%=      5-min Rain = 0
KCA1 241435Z 34002KT 17/14 A2998 RMK A01 T01660136  RH  083%=      5-min Rain = 0
KCA1 241436Z 32002KT 17/14 A2998 RMK A01 T01660136  RH  083%=      5-min Rain = 0
KCA1 241437Z 32005KT 17/14 A2997 RMK A01 T01660138  RH  083%=      5-min Rain = 0
KCA1 241438Z 32006KT 17/14 A2997 RMK A01 T01680141  RH  084%=      5-min Rain = 0
KCA1 241439Z 33004KT 17/14 A2997 RMK A01 T01690141  RH  083%=      5-min Rain = 0
KCA1 241440Z 34002KT 17/14 A2997 RMK A01 T01700141  RH  083%=      5-min Rain = 0
KCA1 241441Z 33002KT 17/15 A2997 RMK A01 T01720148  RH  085%=      5-min Rain = 0
KCA1 241442Z 35004KT 17/15 A2997 RMK A01 T01740145  RH  083%=      5-min Rain = 0
KCA1 241443Z 00005KT 18/14 A2997 RMK A01 T01750142  RH  081%=      5-min Rain = 0
KCA1 241444Z 00004KT 17/14 A2997 RMK A01 T01740139  RH  080%=      5-min Rain = 0
KCA1 241445Z 00004KT 17/14 A2997 RMK A01 T01730139  RH  081%=      5-min Rain = 0
KCA1 241446Z 36004KT 17/14 A2997 RMK A01 T01720137  RH  080%=      5-min Rain = 0
KCA1 241447Z 34005KT 17/14 A2997 RMK A01 T01720142  RH  082%=      5-min Rain = 0
KCA1 241448Z 34005KT 17/14 A2997 RMK A01 T01730142  RH  082%=      5-min Rain = 0
KCA1 241449Z 35006KT 17/14 A2997 RMK A01 T01740140  RH  080%=      5-min Rain = 0
KCA1 241450Z 35005KT 17/14 A2997 RMK A01 T01740142  RH  082%=      5-min Rain = 0
KCA1 241451Z 35004KT 18/14 A2997 RMK A01 T01750141  RH  080%=      5-min Rain = 0
KCA1 241452Z 35003KT 18/14 A2997 RMK A01 T01750139  RH  079%=      5-min Rain = 0
KCA1 241453Z 35003KT 17/14 A2997 RMK A01 T01740140  RH  080%=      5-min Rain = 0
KCA1 241454Z 35004KT 18/14 A2997 RMK A01 T01750144  RH  082%=      5-min Rain = 0
KCA1 241455Z 35005KT 18/14 A2997 RMK A01 T01760143  RH  081%=      5-min Rain = 0
KCA1 241456Z 34005KT 18/14 A2997 RMK A01 T01760139  RH  079%=      5-min Rain = 0
KCA1 241457Z 34004KT 18/14 A2997 RMK A01 T01760144  RH  082%=      5-min Rain = 0
KCA1 241458Z 34005KT 18/14 A2997 RMK A01 T01760144  RH  081%=      5-min Rain = 0
KCA1 241459Z 36003KT 18/14 A2997 RMK A01 T01770143  RH  080%=      5-min Rain = 0
KCA1 241500Z 00005KT 18/14 A2997 RMK A01 T01770143  RH  081%=      5-min Rain = 0
KCA1 241501Z 34004KT 18/14 A2997 RMK A01 T01770143  RH  080%=      5-min Rain = 0
KCA1 241502Z 02004KT 18/15 A2997 RMK A01 T01770146  RH  082%=      5-min Rain = 0
KCA1 241503Z 01005KT 18/15 A2997 RMK A01 T01790146  RH  081%=      5-min Rain = 0
KCA1 241504Z 01003KT 18/15 A2997 RMK A01 T01790145  RH  080%=      5-min Rain = 0
KCA1 241505Z 02005KT 18/14 A2997 RMK A01 T01790142  RH  079%=      5-min Rain = 0
KCA1 241506Z 01005KT 18/14 A2997 RMK A01 T01780139  RH  078%=      5-min Rain = 0
KCA1 241507Z 35005KT 18/14 A2997 RMK A01 T01770142  RH  080%=      5-min Rain = 0
KCA1 241508Z 02005KT 18/14 A2997 RMK A01 T01770142  RH  080%=      5-min Rain = 0
KCA1 241509Z 01005KT 18/14 A2997 RMK A01 T01770142  RH  080%=      5-min Rain = 0
KCA1 241510Z 02004KT 18/14 A2997 RMK A01 T01770141  RH  079%=      5-min Rain = 0
KCA1 241511Z 01003KT 18/14 A2997 RMK A01 T01760139  RH  079%=      5-min Rain = 0
KCA1 241512Z 36004KT 18/14 A2997 RMK A01 T01760142  RH  080%=      5-min Rain = 0
KCA1 241513Z 36004KT 18/14 A2997 RMK A01 T01760143  RH  081%=      5-min Rain = 0
KCA1 241514Z 34006KT 18/15 A2997 RMK A01 T01780145  RH  081%=      5-min Rain = 0
KCA1 241515Z 36006KT 18/15 A2997 RMK A01 T01790146  RH  081%=      5-min Rain = 0
KCA1 241516Z 35005KT 18/15 A2997 RMK A01 T01800145  RH  080%=      5-min Rain = 0
KCA1 241517Z 35004KT 18/14 A2997 RMK A01 T01810144  RH  079%=      5-min Rain = 0
KCA1 241518Z 01005KT 18/15 A2997 RMK A01 T01820145  RH  079%=      5-min Rain = 0
KCA1 241519Z 36003KT 18/15 A2997 RMK A01 T01840150  RH  081%=      5-min Rain = 0
KCA1 241520Z 00005KT 19/15 A2997 RMK A01 T01850147  RH  078%=      5-min Rain = 0
KCA1 241521Z 33005KT 19/15 A2997 RMK A01 T01860149  RH  079%=      5-min Rain = 0
KCA1 241522Z 34004KT 19/15 A2997 RMK A01 T01860145  RH  077%=      5-min Rain = 0
KCA1 241523Z 33002KT 19/14 A2997 RMK A01 T01850142  RH  076%=      5-min Rain = 0
KCA1 241524Z 34005KT 18/15 A2997 RMK A01 T01840146  RH  078%=      5-min Rain = 0
KCA1 241525Z 36005KT 19/15 A2997 RMK A01 T01850145  RH  077%=      5-min Rain = 0
KCA1 241526Z 01004KT 19/14 A2996 RMK A01 T01850144  RH  077%=      5-min Rain = 0
KCA1 241527Z 01004KT 18/15 A2996 RMK A01 T01840145  RH  078%=      5-min Rain = 0
KCA1 241528Z 02004KT 18/15 A2996 RMK A01 T01840146  RH  078%=      5-min Rain = 0
KCA1 241529Z 01005KT 19/15 A2996 RMK A01 T01850148  RH  079%=      5-min Rain = 0
KCA1 241530Z 00006KT 19/15 A2996 RMK A01 T01870152  RH  080%=      5-min Rain = 0
KCA1 241531Z 01005KT 19/15 A2996 RMK A01 T01880149  RH  078%=      5-min Rain = 0
KCA1 241532Z 03005KT 19/15 A2996 RMK A01 T01880147  RH  077%=      5-min Rain = 0
KCA1 241533Z 02004KT 19/15 A2996 RMK A01 T01880146  RH  077%=      5-min Rain = 0
KCA1 241534Z 01003KT 19/15 A2997 RMK A01 T01860145  RH  077%=      5-min Rain = 0
KCA1 241535Z 35002KT 19/14 A2997 RMK A01 T01860144  RH  077%=      5-min Rain = 0
KCA1 241536Z 02003KT 19/15 A2997 RMK A01 T01860148  RH  079%=      5-min Rain = 0
KCA1 241537Z 02004KT 19/15 A2997 RMK A01 T01870148  RH  078%=      5-min Rain = 0
KCA1 241538Z 04004KT 19/15 A2997 RMK A01 T01870147  RH  078%=      5-min Rain = 0
KCA1 241539Z 04004KT 19/15 A2997 RMK A01 T01850145  RH  077%=      5-min Rain = 0
KCA1 241540Z 05005KT 18/15 A2997 RMK A01 T01840145  RH  078%=      5-min Rain = 0
KCA1 241541Z 04004KT 18/15 A2997 RMK A01 T01840148  RH  079%=      5-min Rain = 0
KCA1 241542Z 04005KT 18/15 A2997 RMK A01 T01840146  RH  079%=      5-min Rain = 0
KCA1 241543Z 03004KT 18/14 A2997 RMK A01 T01830144  RH  078%=      5-min Rain = 0
KCA1 241544Z 04004KT 18/15 A2997 RMK A01 T01830148  RH  080%=      5-min Rain = 0
KCA1 241545Z 04004KT 18/14 A2997 RMK A01 T01820144  RH  078%=      5-min Rain = 0
KCA1 241546Z 04004KT 18/15 A2997 RMK A01 T01830147  RH  080%=      5-min Rain = 0
KCA1 241547Z 05004KT 18/15 A2997 RMK A01 T01830148  RH  080%=      5-min Rain = 0
KCA1 241548Z 05004KT 18/15 A2997 RMK A01 T01830149  RH  080%=      5-min Rain = 0
KCA1 241549Z 05004KT 18/15 A2997 RMK A01 T01830149  RH  080%=      5-min Rain = 0
KCA1 241550Z 05003KT 18/15 A2997 RMK A01 T01840147  RH  079%=      5-min Rain = 0
KCA1 241551Z 05003KT 18/15 A2997 RMK A01 T01840145  RH  078%=      5-min Rain = 0
KCA1 241552Z 06002KT 18/15 A2997 RMK A01 T01840147  RH  079%=      5-min Rain = 0
KCA1 241553Z 06002KT 18/15 A2997 RMK A01 T01840146  RH  078%=      5-min Rain = 0
KCA1 241554Z 06002KT 18/15 A2997 RMK A01 T01840148  RH  079%=      5-min Rain = 0
KCA1 241555Z 03001KT 19/15 A2997 RMK A01 T01850150  RH  080%=      5-min Rain = 0
KCA1 241556Z 04002KT 19/15 A2997 RMK A01 T01860151  RH  080%=      5-min Rain = 0
KCA1 241557Z 05003KT 19/15 A2997 RMK A01 T01870147  RH  077%=      5-min Rain = 0
KCA1 241558Z 05004KT 19/15 A2997 RMK A01 T01870147  RH  078%=      5-min Rain = 0
KCA1 241559Z 05003KT 19/15 A2997 RMK A01 T01860146  RH  077%=      5-min Rain = 0
KCA1 241600Z 05003KT 19/15 A2997 RMK A01 T01860147  RH  078%=      5-min Rain = 0
KCA1 241601Z 06003KT 19/15 A2997 RMK A01 T01860145  RH  077%=      5-min Rain = 0
KCA1 241602Z 05003KT 19/15 A2997 RMK A01 T01860147  RH  078%=      5-min Rain = 0
KCA1 241603Z 07003KT 19/15 A2997 RMK A01 T01860148  RH  079%=      5-min Rain = 0
KCA1 241604Z 06002KT 19/15 A2997 RMK A01 T01860152  RH  080%=      5-min Rain = 0
KCA1 241605Z 05003KT 19/15 A2997 RMK A01 T01860152  RH  080%=      5-min Rain = 0
KCA1 241606Z 05003KT 19/15 A2998 RMK A01 T01860151  RH  080%=      5-min Rain = 0
KCA1 241607Z 04002KT 19/15 A2998 RMK A01 T01850149  RH  079%=      5-min Rain = 0
KCA1 241608Z 04002KT 19/15 A2998 RMK A01 T01850148  RH  079%=      5-min Rain = 0
KCA1 241609Z 03002KT 18/15 A2997 RMK A01 T01840146  RH  079%=      5-min Rain = 0
KCA1 241610Z 03003KT 18/15 A2997 RMK A01 T01840149  RH  080%=      5-min Rain = 0
KCA1 241611Z 04002KT 19/15 A2997 RMK A01 T01850147  RH  079%=      5-min Rain = 0
KCA1 241612Z 01002KT 19/15 A2997 RMK A01 T01850148  RH  079%=      5-min Rain = 0
KCA1 241613Z 03003KT 19/15 A2997 RMK A01 T01870154  RH  081%=      5-min Rain = 0
KCA1 241614Z 03004KT 19/15 A2997 RMK A01 T01890152  RH  079%=      5-min Rain = 0
KCA1 241615Z 05003KT 19/15 A2997 RMK A01 T01900150  RH  077%=      5-min Rain = 0
KCA1 241616Z 05002KT 19/15 A2997 RMK A01 T01900148  RH  076%=      5-min Rain = 0
KCA1 241617Z 04004KT 19/15 A2997 RMK A01 T01900149  RH  077%=      5-min Rain = 0
KCA1 241618Z 05004KT 19/15 A2997 RMK A01 T01900149  RH  077%=      5-min Rain = 0
KCA1 241619Z 05003KT 19/15 A2997 RMK A01 T01910150  RH  077%=      5-min Rain = 0
KCA1 241620Z 03004KT 19/15 A2997 RMK A01 T01910152  RH  078%=      5-min Rain = 0
KCA1 241621Z 05004KT 19/15 A2997 RMK A01 T01920153  RH  078%=      5-min Rain = 0
KCA1 241622Z 05005KT 19/15 A2997 RMK A01 T01930152  RH  077%=      5-min Rain = 0
KCA1 241623Z 05005KT 19/15 A2997 RMK A01 T01930152  RH  077%=      5-min Rain = 0
KCA1 241624Z 05003KT 19/15 A2997 RMK A01 T01940151  RH  076%=      5-min Rain = 0
KCA1 241625Z 03005KT 19/15 A2997 RMK A01 T01940153  RH  077%=      5-min Rain = 0
KCA1 241626Z 03004KT 19/15 A2997 RMK A01 T01940151  RH  076%=      5-min Rain = 0
KCA1 241627Z 03003KT 19/15 A2997 RMK A01 T01930147  RH  074%=      5-min Rain = 0
KCA1 241628Z 04003KT 19/15 A2997 RMK A01 T01930151  RH  077%=      5-min Rain = 0
KCA1 241629Z 04004KT 19/15 A2997 RMK A01 T01930152  RH  077%=      5-min Rain = 0
KCA1 241630Z 04002KT 19/15 A2997 RMK A01 T01930146  RH  074%=      5-min Rain = 0
KCA1 241631Z 05002KT 19/15 A2997 RMK A01 T01920145  RH  074%=      5-min Rain = 0
KCA1 241632Z 04004KT 19/15 A2997 RMK A01 T01910148  RH  076%=      5-min Rain = 0
KCA1 241633Z 04005KT 19/15 A2997 RMK A01 T01910150  RH  077%=      5-min Rain = 0
KCA1 241634Z 03003KT 19/15 A2997 RMK A01 T01910149  RH  077%=      5-min Rain = 0
KCA1 241635Z 05004KT 19/15 A2997 RMK A01 T01910150  RH  077%=      5-min Rain = 0
KCA1 241636Z 04005KT 19/15 A2997 RMK A01 T01920154  RH  079%=      5-min Rain = 0
KCA1 241637Z 02005KT 19/15 A2997 RMK A01 T01930153  RH  077%=      5-min Rain = 0
KCA1 241638Z 04006KT 19/15 A2997 RMK A01 T01940150  RH  076%=      5-min Rain = 0
KCA1 241639Z 04006KT 19/15 A2997 RMK A01 T01940150  RH  076%=      5-min Rain = 0
KCA1 241640Z 03004KT 19/15 A2997 RMK A01 T01940152  RH  077%=      5-min Rain = 0
KCA1 241641Z 04003KT 20/15 A2997 RMK A01 T01950153  RH  077%=      5-min Rain = 0
KCA1 241642Z 05003KT 20/15 A2997 RMK A01 T01950152  RH  076%=      5-min Rain = 0
KCA1 241643Z 03002KT 20/15 A2997 RMK A01 T01950150  RH  075%=      5-min Rain = 0
KCA1 241644Z 02002KT 19/15 A2997 RMK A01 T01940151  RH  076%=      5-min Rain = 0
KCA1 241645Z 00002KT 20/15 A2997 RMK A01 T01950151  RH  076%=      5-min Rain = 0
KCA1 241646Z 03003KT 20/15 A2997 RMK A01 T01950152  RH  076%=      5-min Rain = 0
KCA1 241647Z 02003KT 20/16 A2997 RMK A01 T01960157  RH  078%=      5-min Rain = 0
KCA1 241648Z 36004KT 20/15 A2997 RMK A01 T01970154  RH  076%=      5-min Rain = 0
KCA1 241649Z 34002KT 20/15 A2997 RMK A01 T01970150  RH  074%=      5-min Rain = 0
KCA1 241650Z 03002KT 20/15 A2997 RMK A01 T01960153  RH  076%=      5-min Rain = 0
KCA1 241651Z 04002KT 20/15 A2997 RMK A01 T01960150  RH  075%=      5-min Rain = 0
KCA1 241652Z 05002KT 20/15 A2997 RMK A01 T01950152  RH  076%=      5-min Rain = 0
KCA1 241653Z 06004KT 20/15 A2997 RMK A01 T01950153  RH  077%=      5-min Rain = 0
KCA1 241654Z 07003KT 20/15 A2997 RMK A01 T01950152  RH  076%=      5-min Rain = 0
KCA1 241655Z 04002KT 20/15 A2997 RMK A01 T01950154  RH  078%=      5-min Rain = 0
KCA1 241656Z 03003KT 19/15 A2997 RMK A01 T01940154  RH  077%=      5-min Rain = 0
KCA1 241657Z 06002KT 19/15 A2997 RMK A01 T01940152  RH  077%=      5-min Rain = 0
KCA1 241658Z 05003KT 20/16 A2997 RMK A01 T01960157  RH  078%=      5-min Rain = 0
KCA1 241659Z 05002KT 20/15 A2997 RMK A01 T01960152  RH  076%=      5-min Rain = 0
KCA1 241700Z 06001KT 20/16 A2997 RMK A01 T01960155  RH  077%=      5-min Rain = 0
KCA1 241701Z 08002KT 20/15 A2997 RMK A01 T01960154  RH  077%=      5-min Rain = 0
KCA1 241702Z 07003KT 20/15 A2997 RMK A01 T01960154  RH  077%=      5-min Rain = 0
KCA1 241703Z 06003KT 20/15 A2997 RMK A01 T01960154  RH  076%=      5-min Rain = 0
KCA1 241704Z 06003KT 20/16 A2997 RMK A01 T01960156  RH  077%=      5-min Rain = 0
KCA1 241705Z 02003KT 20/16 A2997 RMK A01 T01970156  RH  077%=      5-min Rain = 0
KCA1 241706Z 02003KT 20/15 A2997 RMK A01 T01970154  RH  076%=      5-min Rain = 0
KCA1 241707Z 02003KT 20/15 A2997 RMK A01 T01980152  RH  075%=      5-min Rain = 0
KCA1 241708Z 02003KT 20/15 A2997 RMK A01 T01980151  RH  075%=      5-min Rain = 0
KCA1 241709Z 04003KT 20/15 A2997 RMK A01 T01980154  RH  076%=      5-min Rain = 0
KCA1 241710Z 05003KT 20/15 A2997 RMK A01 T01980154  RH  076%=      5-min Rain = 0
KCA1 241711Z 04003KT 20/15 A2997 RMK A01 T01980153  RH  075%=      5-min Rain = 0
KCA1 241712Z 06002KT 20/15 A2997 RMK A01 T01980152  RH  075%=      5-min Rain = 0
KCA1 241713Z 07001KT 20/16 A2997 RMK A01 T01980155  RH  076%=      5-min Rain = 0
KCA1 241714Z 08000KT 20/16 A2997 RMK A01 T01980155  RH  076%=      5-min Rain = 0
KCA1 241715Z 05002KT 20/16 A2997 RMK A01 T01990155  RH  076%=      5-min Rain = 0
KCA1 241716Z 07002KT 20/15 A2997 RMK A01 T01990152  RH  075%=      5-min Rain = 0
KCA1 241717Z 05002KT 20/15 A2997 RMK A01 T01980153  RH  075%=      5-min Rain = 0
KCA1 241718Z 07002KT 20/15 A2997 RMK A01 T01970154  RH  076%=      5-min Rain = 0
KCA1 241719Z 07003KT 20/16 A2997 RMK A01 T01980158  RH  078%=      5-min Rain = 0
KCA1 241720Z 03003KT 20/16 A2997 RMK A01 T01980157  RH  077%=      5-min Rain = 0
KCA1 241721Z 04004KT 20/16 A2997 RMK A01 T01980155  RH  076%=      5-min Rain = 0
KCA1 241722Z 03004KT 20/15 A2997 RMK A01 T01990154  RH  075%=      5-min Rain = 0
KCA1 241723Z 04002KT 20/16 A2997 RMK A01 T01980155  RH  076%=      5-min Rain = 0
KCA1 241724Z 03002KT 20/15 A2997 RMK A01 T01980154  RH  076%=      5-min Rain = 0
KCA1 241725Z 06002KT 20/16 A2997 RMK A01 T01980157  RH  077%=      5-min Rain = 0
KCA1 241726Z 06003KT 20/16 A2997 RMK A01 T01990156  RH  076%=      5-min Rain = 0
KCA1 241727Z 07003KT 20/16 A2997 RMK A01 T01990155  RH  076%=      5-min Rain = 0
KCA1 241728Z 06003KT 20/16 A2997 RMK A01 T02000158  RH  077%=      5-min Rain = 0
KCA1 241729Z 05005KT 20/16 A2996 RMK A01 T02000158  RH  076%=      5-min Rain = 0
KCA1 241730Z 07006KT 20/16 A2996 RMK A01 T02000158  RH  077%=      5-min Rain = 0
KCA1 241731Z 09005KT 20/16 A2996 RMK A01 T02010159  RH  077%=      5-min Rain = 0
KCA1 241732Z 10005KT 20/16 A2997 RMK A01 T02000158  RH  077%=      5-min Rain = 0
KCA1 241733Z 09004KT 20/16 A2997 RMK A01 T01990157  RH  077%=      5-min Rain = 0
KCA1 241734Z 09004KT 20/16 A2997 RMK A01 T01980156  RH  077%=      5-min Rain = 0
KCA1 241735Z 10003KT 20/16 A2997 RMK A01 T01970158  RH  078%=      5-min Rain = 0
KCA1 241736Z 12005KT 20/16 A2997 RMK A01 T01970159  RH  079%=      5-min Rain = 0
KCA1 241737Z 13004KT 20/16 A2997 RMK A01 T01980158  RH  078%=      5-min Rain = 0
KCA1 241738Z 14004KT 20/16 A2997 RMK A01 T01980158  RH  078%=      5-min Rain = 0
KCA1 241739Z 14004KT 20/16 A2997 RMK A01 T01970159  RH  079%=      5-min Rain = 0
KCA1 241740Z 13004KT 20/16 A2997 RMK A01 T01980160  RH  079%=      5-min Rain = 0
KCA1 241741Z 12004KT 20/16 A2997 RMK A01 T01980158  RH  078%=      5-min Rain = 0
KCA1 241742Z 10003KT 20/16 A2997 RMK A01 T01980159  RH  078%=      5-min Rain = 0
KCA1 241743Z 12002KT 20/16 A2997 RMK A01 T01970156  RH  077%=      5-min Rain = 0
KCA1 241744Z 09001KT 20/16 A2997 RMK A01 T01970157  RH  078%=      5-min Rain = 0
KCA1 241745Z 10003KT 20/16 A2997 RMK A01 T01970159  RH  078%=      5-min Rain = 0
KCA1 241746Z 09004KT 20/16 A2996 RMK A01 T01980161  RH  079%=      5-min Rain = 0
KCA1 241747Z 08003KT 20/16 A2996 RMK A01 T01980160  RH  079%=      5-min Rain = 0
KCA1 241748Z 07004KT 20/16 A2996 RMK A01 T01980161  RH  079%=      5-min Rain = 0
KCA1 241749Z 09003KT 20/16 A2996 RMK A01 T01980156  RH  077%=      5-min Rain = 0
KCA1 241750Z 10003KT 20/16 A2996 RMK A01 T01970160  RH  079%=      5-min Rain = 0
KCA1 241751Z 10003KT 20/16 A2997 RMK A01 T01970160  RH  079%=      5-min Rain = 0
KCA1 241752Z 12004KT 20/16 A2997 RMK A01 T01970157  RH  078%=      5-min Rain = 0
KCA1 241753Z 11005KT 20/16 A2997 RMK A01 T01960161  RH  080%=      5-min Rain = 0
KCA1 241754Z 11004KT 20/16 A2996 RMK A01 T01960161  RH  080%=      5-min Rain = 0
KCA1 241755Z 11005KT 20/16 A2996 RMK A01 T01960163  RH  081%=      5-min Rain = 0
KCA1 241756Z 12005KT 20/16 A2996 RMK A01 T01950161  RH  080%=      5-min Rain = 0
KCA1 241757Z 12006KT 19/16 A2996 RMK A01 T01940164  RH  083%=      5-min Rain = 0
KCA1 241758Z 11006KT 19/16 A2996 RMK A01 T01930163  RH  083%=      5-min Rain = 0
KCA1 241759Z 11006KT 19/16 A2996 RMK A01 T01920162  RH  083%=      5-min Rain = 0
KCA1 241800Z 12006KT 19/16 A2996 RMK A01 T01910162  RH  084%=      5-min Rain = 0
KCA1 241801Z 12007KT 19/16 A2996 RMK A01 T01900162  RH  084%=      5-min Rain = 0
KCA1 241802Z 12007KT 19/16 A2996 RMK A01 T01890160  RH  083%=      5-min Rain = 0
KCA1 241803Z 12006KT 19/16 A2996 RMK A01 T01890160  RH  083%=      5-min Rain = 0
KCA1 241804Z 11006KT 19/16 A2996 RMK A01 T01880159  RH  083%=      5-min Rain = 0
KCA1 241805Z 11006KT 19/16 A2996 RMK A01 T01870161  RH  084%=      5-min Rain = 0
KCA1 241806Z 12007KT 19/16 A2996 RMK A01 T01860162  RH  086%=      5-min Rain = 0
KCA1 241807Z 13006KT 19/16 A2996 RMK A01 T01860164  RH  088%=      5-min Rain = 0
KCA1 241808Z 12006KT 19/17 A2996 RMK A01 T01850166  RH  089%=      5-min Rain = 0
KCA1 241809Z 12006KT 18/16 A2996 RMK A01 T01830164  RH  088%=      5-min Rain = 0
KCA1 241810Z 12006KT 18/17 A2996 RMK A01 T01820165  RH  089%=      5-min Rain = 0
KCA1 241811Z 13007KT 18/17 A2996 RMK A01 T01820165  RH  090%=      5-min Rain = 0
KCA1 241812Z 13007KT 18/17 A2996 RMK A01 T01810165  RH  090%=      5-min Rain = 0
KCA1 241813Z 12006KT 18/17 A2996 RMK A01 T01810165  RH  091%=      5-min Rain = 0
KCA1 241814Z 12006KT 18/17 A2996 RMK A01 T01800165  RH  091%=      5-min Rain = 0
KCA1 241815Z 13005KT 18/17 A2996 RMK A01 T01800166  RH  091%=      5-min Rain = 0
KCA1 241816Z 13004KT 18/17 A2996 RMK A01 T01800167  RH  092%=      5-min Rain = 0
KCA1 241817Z 13005KT 18/17 A2996 RMK A01 T01800169  RH  093%=      5-min Rain = 0
KCA1 241818Z 12007KT 18/17 A2996 RMK A01 T01800169  RH  093%=      5-min Rain = 0
KCA1 241819Z 12007KT 18/17 A2996 RMK A01 T01800167  RH  092%=      5-min Rain = 0
KCA1 241820Z 12006KT 18/17 A2996 RMK A01 T01790166  RH  092%=      5-min Rain = 0
KCA1 241821Z 13005KT 18/17 A2996 RMK A01 T01790169  RH  094%=      5-min Rain = 0
KCA1 241822Z 13004KT 18/17 A2996 RMK A01 T01790171  RH  095%=      5-min Rain = 0
KCA1 241823Z 13007KT 18/17 A2996 RMK A01 T01790171  RH  095%=      5-min Rain = 0
KCA1 241824Z 14007KT 18/17 A2996 RMK A01 T01780168  RH  094%=      5-min Rain = 0
KCA1 241825Z 13007KT 18/17 A2996 RMK A01 T01780168  RH  094%=      5-min Rain = 0
KCA1 241826Z 12007KT 18/17 A2996 RMK A01 T01770168  RH  095%=      5-min Rain = 0
KCA1 241827Z 13005KT 18/17 A2995 RMK A01 T01760169  RH  096%=      5-min Rain = 0
KCA1 241828Z 12006KT 18/17 A2995 RMK A01 T01770171  RH  097%=      5-min Rain = 0
KCA1 241829Z 12006KT 18/17 A2995 RMK A01 T01770172  RH  097%=      5-min Rain = 0
KCA1 241830Z 12005KT 18/17 A2995 RMK A01 T01760172  RH  097%=      5-min Rain = 0
KCA1 241831Z 12006KT 18/17 A2995 RMK A01 T01770172  RH  097%=      5-min Rain = 0
KCA1 241832Z 12005KT 18/17 A2995 RMK A01 T01760171  RH  097%=      5-min Rain = 0
KCA1 241833Z 12006KT 18/17 A2996 RMK A01 T01760171  RH  097%=      5-min Rain = 0
KCA1 241834Z 11006KT 18/17 A2996 RMK A01 T01770172  RH  097%=      5-min Rain = 0
KCA1 241835Z 12006KT 18/17 A2995 RMK A01 T01770170  RH  096%=      5-min Rain = 0
KCA1 241836Z 12007KT 18/17 A2995 RMK A01 T01770169  RH  095%=      5-min Rain = 0
KCA1 241837Z 11006KT 18/17 A2995 RMK A01 T01770169  RH  095%=      5-min Rain = 0
KCA1 241838Z 11006KT 18/17 A2995 RMK A01 T01770171  RH  096%=      5-min Rain = 0
KCA1 241839Z 11005KT 18/17 A2995 RMK A01 T01780171  RH  096%=      5-min Rain = 0
KCA1 241840Z 12005KT 18/17 A2995 RMK A01 T01780172  RH  096%=      5-min Rain = 0
KCA1 241841Z 12006KT 18/17 A2995 RMK A01 T01780172  RH  096%=      5-min Rain = 0
KCA1 241842Z 12005KT 18/17 A2995 RMK A01 T01790172  RH  096%=      5-min Rain = 0
KCA1 241843Z 12004KT 18/17 A2995 RMK A01 T01800174  RH  097%=      5-min Rain = 0
KCA1 241844Z 12004KT 18/18 A2995 RMK A01 T01800175  RH  097%=      5-min Rain = 0
KCA1 241845Z 12003KT 18/18 A2995 RMK A01 T01800176  RH  097%=      5-min Rain = 0
KCA1 241846Z 13005KT 18/18 A2995 RMK A01 T01820178  RH  098%=      5-min Rain = 0
KCA1 241847Z 13005KT 18/18 A2995 RMK A01 T01820175  RH  096%=      5-min Rain = 0
KCA1 241848Z 13005KT 18/17 A2995 RMK A01 T01810172  RH  094%=      5-min Rain = 0
KCA1 241849Z 13005KT 18/17 A2995 RMK A01 T01810171  RH  094%=      5-min Rain = 0
KCA1 241850Z 13005KT 18/17 A2995 RMK A01 T01810172  RH  095%=      5-min Rain = 0
KCA1 241851Z 13005KT 18/17 A2995 RMK A01 T01800169  RH  093%=      5-min Rain = 0
KCA1 241852Z 12004KT 18/17 A2995 RMK A01 T01800168  RH  093%=      5-min Rain = 0
KCA1 241853Z 13004KT 18/17 A2995 RMK A01 T01800169  RH  094%=      5-min Rain = 0.01
KCA1 241854Z 13005KT 18/17 A2995 RMK A01 T01800171  RH  095%=      5-min Rain = 0
KCA1 241855Z 11005KT 18/17 A2995 RMK A01 T01800171  RH  094%=      5-min Rain = 0
KCA1 241856Z 12004KT 18/17 A2995 RMK A01 T01800169  RH  094%=      5-min Rain = 0
KCA1 241857Z 13004KT 18/17 A2995 RMK A01 T01800171  RH  094%=      5-min Rain = 0
KCA1 241858Z 13005KT 18/18 A2995 RMK A01 T01820175  RH  096%=      5-min Rain = 0
KCA1 241859Z 12006KT 18/18 A2995 RMK A01 T01830176  RH  096%=      5-min Rain = 0
KCA1 241900Z 13005KT 18/17 A2995 RMK A01 T01830172  RH  093%=      5-min Rain = 0
KCA1 241901Z 14005KT 18/17 A2995 RMK A01 T01830171  RH  093%=      5-min Rain = 0
KCA1 241902Z 12005KT 18/17 A2995 RMK A01 T01820172  RH  093%=      5-min Rain = 0
KCA1 241903Z 12005KT 18/17 A2995 RMK A01 T01820171  RH  093%=      5-min Rain = 0
KCA1 241904Z 11004KT 18/17 A2995 RMK A01 T01830172  RH  093%=      5-min Rain = 0
KCA1 241905Z 12004KT 18/17 A2995 RMK A01 T01830171  RH  093%=      5-min Rain = 0
KCA1 241906Z 12006KT 18/17 A2995 RMK A01 T01840173  RH  093%=      5-min Rain = 0
KCA1 241907Z 13004KT 18/17 A2994 RMK A01 T01830169  RH  091%=      5-min Rain = 0
KCA1 241908Z 13005KT 18/17 A2994 RMK A01 T01830169  RH  092%=      5-min Rain = 0
KCA1 241909Z 12005KT 18/17 A2994 RMK A01 T01830170  RH  092%=      5-min Rain = 0
KCA1 241910Z 11005KT 18/17 A2994 RMK A01 T01830171  RH  093%=      5-min Rain = 0
KCA1 241911Z 11005KT 18/17 A2994 RMK A01 T01830171  RH  093%=      5-min Rain = 0
KCA1 241912Z 12005KT 18/17 A2994 RMK A01 T01830172  RH  094%=      5-min Rain = 0
KCA1 241913Z 12006KT 18/17 A2994 RMK A01 T01830171  RH  093%=      5-min Rain = 0
KCA1 241914Z 12005KT 18/17 A2994 RMK A01 T01830172  RH  093%=      5-min Rain = 0
KCA1 241915Z 13004KT 18/17 A2994 RMK A01 T01830171  RH  093%=      5-min Rain = 0
KCA1 241916Z 13004KT 18/17 A2994 RMK A01 T01840170  RH  092%=      5-min Rain = 0
KCA1 241917Z 14004KT 18/17 A2994 RMK A01 T01840172  RH  093%=      5-min Rain = 0
KCA1 241918Z 13004KT 19/17 A2994 RMK A01 T01850173  RH  093%=      5-min Rain = 0
KCA1 241919Z 13004KT 19/17 A2994 RMK A01 T01860173  RH  092%=      5-min Rain = 0
KCA1 241920Z 13004KT 19/17 A2994 RMK A01 T01870173  RH  092%=      5-min Rain = 0
KCA1 241921Z 14005KT 19/17 A2994 RMK A01 T01870174  RH  092%=      5-min Rain = 0
KCA1 241922Z 14005KT 19/17 A2994 RMK A01 T01870173  RH  091%=      5-min Rain = 0
KCA1 241923Z 13004KT 19/17 A2994 RMK A01 T01870171  RH  090%=      5-min Rain = 0
KCA1 241924Z 15002KT 19/17 A2994 RMK A01 T01870173  RH  091%=      5-min Rain = 0
KCA1 241925Z 16002KT 19/18 A2994 RMK A01 T01880175  RH  092%=      5-min Rain = 0
KCA1 241926Z 15003KT 19/17 A2994 RMK A01 T01880171  RH  090%=      5-min Rain = 0
KCA1 241927Z 13003KT 19/17 A2994 RMK A01 T01890174  RH  091%=      5-min Rain = 0
KCA1 241928Z 14004KT 19/18 A2994 RMK A01 T01890176  RH  092%=      5-min Rain = 0
KCA1 241929Z 14004KT 19/17 A2994 RMK A01 T01890174  RH  091%=      5-min Rain = 0
KCA1 241930Z 13003KT 19/17 A2994 RMK A01 T01890172  RH  090%=      5-min Rain = 0
KCA1 241931Z 14003KT 19/17 A2994 RMK A01 T01890174  RH  091%=      5-min Rain = 0
KCA1 241932Z 14003KT 19/18 A2994 RMK A01 T01900175  RH  091%=      5-min Rain = 0
KCA1 241933Z 14004KT 19/18 A2994 RMK A01 T01890175  RH  091%=      5-min Rain = 0
KCA1 241934Z 14003KT 19/17 A2993 RMK A01 T01900171  RH  089%=      5-min Rain = 0
KCA1 241935Z 15003KT 19/17 A2993 RMK A01 T01890173  RH  090%=      5-min Rain = 0
KCA1 241936Z 15003KT 19/17 A2993 RMK A01 T01890172  RH  090%=      5-min Rain = 0
KCA1 241937Z 15002KT 19/17 A2993 RMK A01 T01890169  RH  088%=      5-min Rain = 0
KCA1 241938Z 12003KT 19/17 A2993 RMK A01 T01890173  RH  090%=      5-min Rain = 0
KCA1 241939Z 11004KT 19/17 A2993 RMK A01 T01890172  RH  090%=      5-min Rain = 0
KCA1 241940Z 12004KT 19/17 A2993 RMK A01 T01900173  RH  090%=      5-min Rain = 0
KCA1 241941Z 11004KT 19/17 A2993 RMK A01 T01900172  RH  089%=      5-min Rain = 0
KCA1 241942Z 10003KT 19/17 A2993 RMK A01 T01900172  RH  089%=      5-min Rain = 0
KCA1 241943Z 11004KT 19/18 A2993 RMK A01 T01910177  RH  091%=      5-min Rain = 0
KCA1 241944Z 11003KT 19/17 A2992 RMK A01 T01910172  RH  089%=      5-min Rain = 0
KCA1 241945Z 14004KT 19/17 A2992 RMK A01 T01920174  RH  089%=      5-min Rain = 0
KCA1 241946Z 12004KT 19/17 A2992 RMK A01 T01920174  RH  089%=      5-min Rain = 0
KCA1 241947Z 12004KT 19/17 A2992 RMK A01 T01920171  RH  088%=      5-min Rain = 0
KCA1 241948Z 10002KT 19/17 A2993 RMK A01 T01930171  RH  087%=      5-min Rain = 0
KCA1 241949Z 10002KT 19/17 A2993 RMK A01 T01920172  RH  088%=      5-min Rain = 0
KCA1 241950Z 09004KT 19/17 A2993 RMK A01 T01920172  RH  088%=      5-min Rain = 0
KCA1 241951Z 09003KT 19/17 A2993 RMK A01 T01930169  RH  086%=      5-min Rain = 0
KCA1 241952Z 11003KT 19/17 A2992 RMK A01 T01940172  RH  087%=      5-min Rain = 0
KCA1 241953Z 10004KT 19/17 A2992 RMK A01 T01940170  RH  086%=      5-min Rain = 0
KCA1 241954Z 10006KT 19/17 A2992 RMK A01 T01940171  RH  086%=      5-min Rain = 0
KCA1 241955Z 10004KT 19/17 A2992 RMK A01 T01940174  RH  088%=      5-min Rain = 0
KCA1 241956Z 10004KT 20/17 A2992 RMK A01 T01950171  RH  086%=      5-min Rain = 0
KCA1 241957Z 11005KT 20/17 A2992 RMK A01 T01950171  RH  086%=      5-min Rain = 0
KCA1 241958Z 11004KT 19/17 A2992 RMK A01 T01940172  RH  087%=      5-min Rain = 0
KCA1 241959Z 12003KT 19/17 A2992 RMK A01 T01940174  RH  088%=      5-min Rain = 0
KCA1 242000Z 12005KT 19/18 A2992 RMK A01 T01940175  RH  088%=      5-min Rain = 0
KCA1 242001Z 11004KT 19/17 A2992 RMK A01 T01940173  RH  088%=      5-min Rain = 0
KCA1 242002Z 11004KT 19/17 A2992 RMK A01 T01940171  RH  087%=      5-min Rain = 0
KCA1 242003Z 12005KT 19/17 A2992 RMK A01 T01940172  RH  087%=      5-min Rain = 0
KCA1 242004Z 11003KT 19/17 A2992 RMK A01 T01940173  RH  088%=      5-min Rain = 0
KCA1 242005Z 11003KT 19/17 A2992 RMK A01 T01930174  RH  088%=      5-min Rain = 0
KCA1 242006Z 12004KT 19/17 A2992 RMK A01 T01940174  RH  088%=      5-min Rain = 0
KCA1 242007Z 12004KT 20/18 A2992 RMK A01 T01950176  RH  089%=      5-min Rain = 0
KCA1 242008Z 13004KT 20/17 A2992 RMK A01 T01950174  RH  087%=      5-min Rain = 0
KCA1 242009Z 14004KT 20/17 A2992 RMK A01 T01960174  RH  087%=      5-min Rain = 0
KCA1 242010Z 14004KT 20/17 A2993 RMK A01 T01960174  RH  087%=      5-min Rain = 0
KCA1 242011Z 14005KT 20/17 A2992 RMK A01 T01960174  RH  087%=      5-min Rain = 0
KCA1 242012Z 14005KT 20/17 A2992 RMK A01 T01950173  RH  087%=      5-min Rain = 0
KCA1 242013Z 13004KT 20/18 A2992 RMK A01 T01950175  RH  088%=      5-min Rain = 0
KCA1 242014Z 12003KT 20/18 A2992 RMK A01 T01960175  RH  088%=      5-min Rain = 0
KCA1 242015Z 14003KT 20/17 A2992 RMK A01 T01950174  RH  087%=      5-min Rain = 0
KCA1 242016Z 14003KT 20/18 A2992 RMK A01 T01950175  RH  088%=      5-min Rain = 0
KCA1 242017Z 12004KT 20/18 A2993 RMK A01 T01960176  RH  088%=      5-min Rain = 0
KCA1 242018Z 12004KT 20/17 A2992 RMK A01 T01970174  RH  087%=      5-min Rain = 0
KCA1 242019Z 13003KT 20/17 A2992 RMK A01 T01970174  RH  086%=      5-min Rain = 0
KCA1 242020Z 13004KT 20/17 A2992 RMK A01 T01980173  RH  085%=      5-min Rain = 0
KCA1 242021Z 11005KT 20/18 A2992 RMK A01 T01980175  RH  086%=      5-min Rain = 0
KCA1 242022Z 11003KT 20/17 A2992 RMK A01 T01980173  RH  085%=      5-min Rain = 0
KCA1 242023Z 10002KT 20/17 A2992 RMK A01 T01990174  RH  086%=      5-min Rain = 0
KCA1 242024Z 10003KT 20/18 A2992 RMK A01 T01990175  RH  086%=      5-min Rain = 0
KCA1 242025Z 14002KT 20/17 A2992 RMK A01 T01990173  RH  085%=      5-min Rain = 0
KCA1 242026Z 12003KT 20/17 A2992 RMK A01 T01980173  RH  085%=      5-min Rain = 0
KCA1 242027Z 12003KT 20/17 A2992 RMK A01 T01990173  RH  085%=      5-min Rain = 0
KCA1 242028Z 12004KT 20/17 A2992 RMK A01 T01980173  RH  085%=      5-min Rain = 0
KCA1 242029Z 10005KT 20/18 A2992 RMK A01 T01990176  RH  087%=      5-min Rain = 0
KCA1 242030Z 10005KT 20/17 A2992 RMK A01 T01980174  RH  086%=      5-min Rain = 0
KCA1 242031Z 11004KT 20/17 A2992 RMK A01 T01990174  RH  086%=      5-min Rain = 0
KCA1 242032Z 10004KT 20/18 A2992 RMK A01 T01990176  RH  086%=      5-min Rain = 0
KCA1 242033Z 11003KT 20/18 A2992 RMK A01 T01990177  RH  087%=      5-min Rain = 0
KCA1 242034Z 13003KT 20/18 A2992 RMK A01 T02000177  RH  086%=      5-min Rain = 0
KCA1 242035Z 11004KT 20/18 A2992 RMK A01 T02010176  RH  086%=      5-min Rain = 0
KCA1 242036Z 11004KT 20/18 A2992 RMK A01 T02010178  RH  087%=      5-min Rain = 0
KCA1 242037Z 12004KT 20/18 A2992 RMK A01 T02010178  RH  086%=      5-min Rain = 0
KCA1 242038Z 12005KT 20/18 A2992 RMK A01 T02010176  RH  085%=      5-min Rain = 0
KCA1 242039Z 13005KT 20/18 A2992 RMK A01 T02000175  RH  085%=      5-min Rain = 0
KCA1 242040Z 12005KT 20/18 A2991 RMK A01 T01990175  RH  086%=      5-min Rain = 0
KCA1 242041Z 10004KT 20/18 A2991 RMK A01 T01990176  RH  087%=      5-min Rain = 0
KCA1 242042Z 12004KT 20/18 A2991 RMK A01 T01990176  RH  087%=      5-min Rain = 0
KCA1 242043Z 13003KT 20/18 A2991 RMK A01 T01990175  RH  086%=      5-min Rain = 0
KCA1 242044Z 14001KT 20/18 A2991 RMK A01 T01990176  RH  087%=      5-min Rain = 0
KCA1 242045Z 12003KT 20/18 A2991 RMK A01 T01990180  RH  089%=      5-min Rain = 0
KCA1 242046Z 12003KT 20/18 A2991 RMK A01 T01990177  RH  087%=      5-min Rain = 0
KCA1 242047Z 11004KT 20/18 A2991 RMK A01 T01990179  RH  088%=      5-min Rain = 0
KCA1 242048Z 12004KT 20/18 A2991 RMK A01 T01990176  RH  086%=      5-min Rain = 0
KCA1 242049Z 12004KT 20/18 A2991 RMK A01 T02000177  RH  087%=      5-min Rain = 0
KCA1 242050Z 11003KT 20/18 A2991 RMK A01 T01990176  RH  087%=      5-min Rain = 0
KCA1 242051Z 11003KT 20/18 A2991 RMK A01 T01990178  RH  088%=      5-min Rain = 0
KCA1 242052Z 12004KT 20/18 A299 RMK A01 T01990176  RH  086%=      5-min Rain = 0
KCA1 242053Z 12003KT 20/18 A299 RMK A01 T01990175  RH  086%=      5-min Rain = 0
KCA1 242054Z 13004KT 20/18 A299 RMK A01 T01990177  RH  087%=      5-min Rain = 0
KCA1 242055Z 14004KT 20/18 A2991 RMK A01 T01990176  RH  086%=      5-min Rain = 0
KCA1 242056Z 15006KT 20/18 A2991 RMK A01 T01980178  RH  088%=      5-min Rain = 0
KCA1 242057Z 15005KT 20/18 A2991 RMK A01 T01990178  RH  088%=      5-min Rain = 0
KCA1 242058Z 14004KT 20/18 A2991 RMK A01 T01980177  RH  088%=      5-min Rain = 0
KCA1 242059Z 14005KT 20/18 A2991 RMK A01 T01990177  RH  087%=      5-min Rain = 0
KCA1 242100Z 14004KT 20/18 A2991 RMK A01 T01980176  RH  087%=      5-min Rain = 0
KCA1 242101Z 16005KT 20/18 A2991 RMK A01 T01980176  RH  088%=      5-min Rain = 0
KCA1 242102Z 16005KT 20/18 A2991 RMK A01 T01970177  RH  088%=      5-min Rain = 0
KCA1 242103Z 16004KT 20/18 A2991 RMK A01 T01970176  RH  088%=      5-min Rain = 0
KCA1 242104Z 15004KT 20/18 A2991 RMK A01 T01970177  RH  088%=      5-min Rain = 0
KCA1 242105Z 14005KT 20/18 A2991 RMK A01 T01970176  RH  088%=      5-min Rain = 0
KCA1 242106Z 13005KT 20/18 A2991 RMK A01 T01970176  RH  088%=      5-min Rain = 0
KCA1 242107Z 14005KT 20/18 A2991 RMK A01 T01960177  RH  088%=      5-min Rain = 0
KCA1 242108Z 13006KT 20/18 A2991 RMK A01 T01960176  RH  088%=      5-min Rain = 0
KCA1 242109Z 13005KT 20/18 A2991 RMK A01 T01960176  RH  089%=      5-min Rain = 0
KCA1 242110Z 13005KT 20/18 A2991 RMK A01 T01950177  RH  089%=      5-min Rain = 0
KCA1 242111Z 13006KT 20/18 A2991 RMK A01 T01950178  RH  090%=      5-min Rain = 0
KCA1 242112Z 13006KT 20/18 A2991 RMK A01 T01950179  RH  090%=      5-min Rain = 0
KCA1 242113Z 13005KT 20/18 A2991 RMK A01 T01950179  RH  090%=      5-min Rain = 0
KCA1 242114Z 13007KT 20/18 A2991 RMK A01 T01950179  RH  090%=      5-min Rain = 0
KCA1 242115Z 13007KT 20/18 A2991 RMK A01 T01950178  RH  090%=      5-min Rain = 0
KCA1 242116Z 12008KT 20/18 A2991 RMK A01 T01950178  RH  090%=      5-min Rain = 0
KCA1 242117Z 11007KT 19/18 A2991 RMK A01 T01940177  RH  090%=      5-min Rain = 0
KCA1 242118Z 11006KT 19/18 A299 RMK A01 T01940177  RH  090%=      5-min Rain = 0
KCA1 242119Z 12006KT 19/18 A299 RMK A01 T01940177  RH  090%=      5-min Rain = 0
KCA1 242120Z 11005KT 19/18 A299 RMK A01 T01940179  RH  091%=      5-min Rain = 0
KCA1 242121Z 11006KT 20/18 A299 RMK A01 T01950179  RH  090%=      5-min Rain = 0
KCA1 242122Z 11007KT 20/18 A299 RMK A01 T01950178  RH  090%=      5-min Rain = 0
KCA1 242123Z 10007KT 19/18 A299 RMK A01 T01940177  RH  090%=      5-min Rain = 0
KCA1 242124Z 10007KT 19/18 A299 RMK A01 T01940179  RH  091%=      5-min Rain = 0
KCA1 242125Z 10008KT 19/18 A299 RMK A01 T01940179  RH  091%=      5-min Rain = 0
KCA1 242126Z 10007KT 19/18 A299 RMK A01 T01930178  RH  091%=      5-min Rain = 0
KCA1 242127Z 10007KT 19/18 A2989 RMK A01 T01920178  RH  092%=      5-min Rain = 0
KCA1 242128Z 10007KT 19/18 A2989 RMK A01 T01920178  RH  092%=      5-min Rain = 0
KCA1 242129Z 10007KT 19/18 A2989 RMK A01 T01910178  RH  092%=      5-min Rain = 0
KCA1 242130Z 10006KT 19/18 A299 RMK A01 T01910179  RH  093%=      5-min Rain = 0
KCA1 242131Z 10006KT 19/18 A299 RMK A01 T01900178  RH  093%=      5-min Rain = 0
KCA1 242132Z 10007KT 19/18 A2989 RMK A01 T01910179  RH  093%=      5-min Rain = 0
KCA1 242133Z 11007KT 19/18 A2989 RMK A01 T01900178  RH  093%=      5-min Rain = 0
KCA1 242134Z 10005KT 19/18 A2989 RMK A01 T01900178  RH  093%=      5-min Rain = 0
KCA1 242135Z 10007KT 19/18 A2989 RMK A01 T01890180  RH  094%=      5-min Rain = 0
KCA1 242136Z 10007KT 19/18 A2989 RMK A01 T01890178  RH  093%=      5-min Rain = 0
KCA1 242137Z 10007KT 19/18 A2989 RMK A01 T01890179  RH  094%=      5-min Rain = 0
KCA1 242138Z 09007KT 19/18 A2989 RMK A01 T01890178  RH  093%=      5-min Rain = 0
KCA1 242139Z 10007KT 19/18 A2989 RMK A01 T01890179  RH  094%=      5-min Rain = 0
KCA1 242140Z 10007KT 19/18 A2989 RMK A01 T01890179  RH  094%=      5-min Rain = 0
KCA1 242141Z 10007KT 19/18 A2989 RMK A01 T01890178  RH  094%=      5-min Rain = 0
KCA1 242142Z 11007KT 19/18 A2989 RMK A01 T01890179  RH  094%=      5-min Rain = 0
KCA1 242143Z 11007KT 19/18 A2989 RMK A01 T01890179  RH  094%=      5-min Rain = 0
KCA1 242144Z 11007KT 19/18 A2989 RMK A01 T01880179  RH  094%=      5-min Rain = 0
KCA1 242145Z 11006KT 19/18 A2989 RMK A01 T01880178  RH  094%=      5-min Rain = 0
KCA1 242146Z 10007KT 19/18 A2989 RMK A01 T01890179  RH  094%=      5-min Rain = 0
KCA1 242147Z 11006KT 19/18 A2989 RMK A01 T01880178  RH  094%=      5-min Rain = 0
KCA1 242148Z 11006KT 19/18 A2989 RMK A01 T01880179  RH  094%=      5-min Rain = 0
KCA1 242149Z 11006KT 19/18 A2989 RMK A01 T01880179  RH  094%=      5-min Rain = 0
KCA1 242150Z 11006KT 19/18 A2989 RMK A01 T01880179  RH  094%=      5-min Rain = 0
KCA1 242151Z 11007KT 19/18 A2989 RMK A01 T01880179  RH  094%=      5-min Rain = 0
KCA1 242152Z 10007KT 19/18 A2989 RMK A01 T01880178  RH  094%=      5-min Rain = 0
KCA1 242153Z 10006KT 19/18 A2989 RMK A01 T01880179  RH  094%=      5-min Rain = 0
KCA1 242154Z 09007KT 19/18 A2989 RMK A01 T01880179  RH  094%=      5-min Rain = 0
KCA1 242155Z 09007KT 19/18 A2989 RMK A01 T01870178  RH  094%=      5-min Rain = 0
KCA1 242156Z 10006KT 19/18 A2989 RMK A01 T01870178  RH  094%=      5-min Rain = 0
KCA1 242157Z 09006KT 19/18 A2989 RMK A01 T01870179  RH  095%=      5-min Rain = 0
KCA1 242158Z 09007KT 19/18 A2988 RMK A01 T01870177  RH  094%=      5-min Rain = 0
KCA1 242159Z 09006KT 19/18 A2988 RMK A01 T01870176  RH  094%=      5-min Rain = 0
KCA1 242200Z 08006KT 19/18 A2988 RMK A01 T01870177  RH  094%=      5-min Rain = 0
KCA1 242201Z 07006KT 19/18 A2988 RMK A01 T01870178  RH  094%=      5-min Rain = 0
KCA1 242202Z 08006KT 19/18 A2988 RMK A01 T01870179  RH  095%=      5-min Rain = 0
KCA1 242203Z 08006KT 19/18 A2988 RMK A01 T01870178  RH  095%=      5-min Rain = 0
KCA1 242204Z 09007KT 19/18 A2988 RMK A01 T01870178  RH  095%=      5-min Rain = 0
KCA1 242205Z 10007KT 19/18 A2988 RMK A01 T01870178  RH  095%=      5-min Rain = 0
KCA1 242206Z 09006KT 19/18 A2988 RMK A01 T01860178  RH  095%=      5-min Rain = 0
KCA1 242207Z 10006KT 19/18 A2988 RMK A01 T01870178  RH  095%=      5-min Rain = 0
KCA1 242208Z 10006KT 19/18 A2988 RMK A01 T01860179  RH  095%=      5-min Rain = 0
KCA1 242209Z 11005KT 19/18 A2988 RMK A01 T01860179  RH  096%=      5-min Rain = 0
KCA1 242210Z 10006KT 19/18 A2988 RMK A01 T01870180  RH  096%=      5-min Rain = 0
KCA1 242211Z 11008KT 19/18 A2988 RMK A01 T01870179  RH  095%=      5-min Rain = 0
KCA1 242212Z 11007KT 19/18 A2989 RMK A01 T01870179  RH  095%=      5-min Rain = 0
KCA1 242213Z 09006KT 19/18 A2988 RMK A01 T01870179  RH  095%=      5-min Rain = 0
KCA1 242214Z 09006KT 19/18 A2988 RMK A01 T01860178  RH  095%=      5-min Rain = 0
KCA1 242215Z 09006KT 19/18 A2988 RMK A01 T01860178  RH  095%=      5-min Rain = 0
KCA1 242216Z 10006KT 19/18 A2988 RMK A01 T01860179  RH  095%=      5-min Rain = 0
KCA1 242217Z 09005KT 19/18 A2988 RMK A01 T01860179  RH  096%=      5-min Rain = 0
KCA1 242218Z 11004KT 19/18 A2988 RMK A01 T01860179  RH  096%=      5-min Rain = 0
KCA1 242219Z 10004KT 19/18 A2988 RMK A01 T01860179  RH  096%=      5-min Rain = 0
KCA1 242220Z 08005KT 19/18 A2988 RMK A01 T01860179  RH  096%=      5-min Rain = 0
KCA1 242221Z 08006KT 19/18 A2987 RMK A01 T01860179  RH  095%=      5-min Rain = 0
KCA1 242222Z 08006KT 19/18 A2987 RMK A01 T01860178  RH  095%=      5-min Rain = 0
KCA1 242223Z 08006KT 19/18 A2987 RMK A01 T01860178  RH  095%=      5-min Rain = 0
KCA1 242224Z 08006KT 19/18 A2987 RMK A01 T01860179  RH  096%=      5-min Rain = 0
KCA1 242225Z 08005KT 19/18 A2987 RMK A01 T01860179  RH  096%=      5-min Rain = 0
KCA1 242226Z 07006KT 19/18 A2986 RMK A01 T01850178  RH  096%=      5-min Rain = 0
KCA1 242227Z 07005KT 19/18 A2986 RMK A01 T01850178  RH  096%=      5-min Rain = 0
KCA1 242228Z 07005KT 19/18 A2986 RMK A01 T01850178  RH  096%=      5-min Rain = 0
KCA1 242229Z 06006KT 19/18 A2986 RMK A01 T01850178  RH  096%=      5-min Rain = 0
KCA1 242230Z 06006KT 19/18 A2986 RMK A01 T01850179  RH  096%=      5-min Rain = 0
KCA1 242231Z 06005KT 19/18 A2985 RMK A01 T01850178  RH  096%=      5-min Rain = 0
KCA1 242232Z 05005KT 19/18 A2985 RMK A01 T01850179  RH  096%=      5-min Rain = 0
KCA1 242233Z 04005KT 19/18 A2985 RMK A01 T01850179  RH  096%=      5-min Rain = 0
KCA1 242234Z 03006KT 19/18 A2985 RMK A01 T01850179  RH  097%=      5-min Rain = 0
KCA1 242235Z 04006KT 19/18 A2985 RMK A01 T01850179  RH  097%=      5-min Rain = 0
KCA1 242236Z 05006KT 19/18 A2984 RMK A01 T01850179  RH  097%=      5-min Rain = 0
KCA1 242237Z 05005KT 18/18 A2984 RMK A01 T01840179  RH  097%=      5-min Rain = 0
KCA1 242238Z 06006KT 18/18 A2984 RMK A01 T01840179  RH  097%=      5-min Rain = 0
KCA1 242239Z 06006KT 18/18 A2985 RMK A01 T01840179  RH  097%=      5-min Rain = 0
KCA1 242240Z 06005KT 18/18 A2985 RMK A01 T01840180  RH  097%=      5-min Rain = 0
KCA1 242241Z 07004KT 18/18 A2985 RMK A01 T01840180  RH  097%=      5-min Rain = 0
KCA1 242242Z 07005KT 18/18 A2985 RMK A01 T01840180  RH  097%=      5-min Rain = 0
KCA1 242243Z 06005KT 18/18 A2985 RMK A01 T01840180  RH  098%=      5-min Rain = 0
KCA1 242244Z 06007KT 18/18 A2985 RMK A01 T01840180  RH  098%=      5-min Rain = 0
KCA1 242245Z 06006KT 18/18 A2984 RMK A01 T01840180  RH  098%=      5-min Rain = 0
KCA1 242246Z 06007KT 18/18 A2984 RMK A01 T01840180  RH  097%=      5-min Rain = 0
KCA1 242247Z 06006KT 18/18 A2984 RMK A01 T01840180  RH  097%=      5-min Rain = 0
KCA1 242248Z 06005KT 18/18 A2984 RMK A01 T01840180  RH  097%=      5-min Rain = 0
KCA1 242249Z 06006KT 18/18 A2985 RMK A01 T01840180  RH  098%=      5-min Rain = 0
KCA1 242250Z 07005KT 18/18 A2985 RMK A01 T01840180  RH  098%=      5-min Rain = 0
KCA1 242251Z 07005KT 18/18 A2985 RMK A01 T01840180  RH  098%=      5-min Rain = 0
KCA1 242252Z 07005KT 18/18 A2985 RMK A01 T01840181  RH  098%=      5-min Rain = 0
KCA1 242253Z 07005KT 18/18 A2985 RMK A01 T01840181  RH  098%=      5-min Rain = 0
KCA1 242254Z 07006KT 18/18 A2985 RMK A01 T01840181  RH  098%=      5-min Rain = 0
KCA1 242255Z 07006KT 18/18 A2985 RMK A01 T01840181  RH  098%=      5-min Rain = 0
KCA1 242256Z 08006KT 18/18 A2985 RMK A01 T01840181  RH  098%=      5-min Rain = 0
KCA1 242257Z 09006KT 18/18 A2985 RMK A01 T01840181  RH  098%=      5-min Rain = 0
KCA1 242258Z 09006KT 18/18 A2985 RMK A01 T01840181  RH  098%=      5-min Rain = 0
KCA1 242259Z 09006KT 18/18 A2985 RMK A01 T01830181  RH  099%=      5-min Rain = 0
KCA1 242300Z 08005KT 18/18 A2985 RMK A01 T01830181  RH  099%=      5-min Rain = 0
KCA1 242301Z 09004KT 18/18 A2985 RMK A01 T01830181  RH  099%=      5-min Rain = 0
KCA1 242302Z 08005KT 18/18 A2985 RMK A01 T01830181  RH  099%=      5-min Rain = 0
KCA1 242303Z 08004KT 18/18 A2985 RMK A01 T01830181  RH  099%=      5-min Rain = 0
KCA1 242304Z 08004KT 18/18 A2985 RMK A01 T01830181  RH  099%=      5-min Rain = 0
KCA1 242305Z 08005KT 18/18 A2984 RMK A01 T01830182  RH  099%=      5-min Rain = 0
KCA1 242306Z 08005KT 18/18 A2984 RMK A01 T01830182  RH  099%=      5-min Rain = 0
KCA1 242307Z 08006KT 18/18 A2984 RMK A01 T01830181  RH  099%=      5-min Rain = 0
KCA1 242308Z 09006KT 18/18 A2984 RMK A01 T01830182  RH  099%=      5-min Rain = 0
KCA1 242309Z 09006KT 18/18 A2984 RMK A01 T01830181  RH  099%=      5-min Rain = 0
KCA1 242310Z 09006KT 18/18 A2984 RMK A01 T01830182  RH  099%=      5-min Rain = 0
KCA1 242311Z 10006KT 18/18 A2984 RMK A01 T01830181  RH  099%=      5-min Rain = 0
KCA1 242312Z 10005KT 18/18 A2984 RMK A01 T01820181  RH  099%=      5-min Rain = 0
KCA1 242313Z 10005KT 18/18 A2984 RMK A01 T01820181  RH  099%=      5-min Rain = 0
KCA1 242314Z 09007KT 18/18 A2984 RMK A01 T01820181  RH  099%=      5-min Rain = 0
KCA1 242315Z 09006KT 18/18 A2984 RMK A01 T01830182  RH  099%=      5-min Rain = 0
KCA1 242316Z 09006KT 18/18 A2984 RMK A01 T01820181  RH  099%=      5-min Rain = 0
KCA1 242317Z 09006KT 18/18 A2984 RMK A01 T01820182  RH  099%=      5-min Rain = 0
KCA1 242318Z 09006KT 18/18 A2984 RMK A01 T01820182  RH  100%=      5-min Rain = 0
KCA1 242319Z 09006KT 18/18 A2984 RMK A01 T01830182  RH  100%=      5-min Rain = 0
KCA1 242320Z 08005KT 18/18 A2983 RMK A01 T01820182  RH  100%=      5-min Rain = 0
KCA1 242321Z 08006KT 18/18 A2983 RMK A01 T01820182  RH  100%=      5-min Rain = 0
KCA1 242322Z 07005KT 18/18 A2983 RMK A01 T01820182  RH  100%=      5-min Rain = 0
KCA1 242323Z 07006KT 18/18 A2983 RMK A01 T01820182  RH  100%=      5-min Rain = 0
KCA1 242324Z 07005KT 18/18 A2982 RMK A01 T01820182  RH  100%=      5-min Rain = 0
KCA1 242325Z 06005KT 18/18 A2982 RMK A01 T01820182  RH  100%=      5-min Rain = 0
KCA1 242326Z 06004KT 18/18 A2982 RMK A01 T01820182  RH  100%=      5-min Rain = 0
KCA1 242327Z 06004KT 18/18 A2982 RMK A01 T01820182  RH  100%=      5-min Rain = 0
KCA1 242328Z 05005KT 18/18 A2982 RMK A01 T01820182  RH  100%=      5-min Rain = 0
KCA1 242329Z 05004KT 18/18 A2981 RMK A01 T01820182  RH  100%=      5-min Rain = 0
KCA1 242330Z 05004KT 18/18 A2981 RMK A01 T01810181  RH  100%=      5-min Rain = 0
KCA1 242331Z 05005KT 18/18 A2981 RMK A01 T01810181  RH  100%=      5-min Rain = 0
KCA1 242332Z 05006KT 18/18 A2981 RMK A01 T01820182  RH  100%=      5-min Rain = 0
KCA1 242333Z 05005KT 18/18 A2981 RMK A01 T01820182  RH  100%=      5-min Rain = 0
KCA1 242334Z 05005KT 18/18 A2981 RMK A01 T01820182  RH  100%=      5-min Rain = 0
KCA1 242335Z 05005KT 18/18 A2981 RMK A01 T01820182  RH  100%=      5-min Rain = 0
KCA1 242336Z 04005KT 18/18 A2981 RMK A01 T01810181  RH  100%=      5-min Rain = 0
KCA1 242337Z 03005KT 18/18 A298 RMK A01 T01810181  RH  100%=      5-min Rain = 0
KCA1 242338Z 03005KT 18/18 A298 RMK A01 T01810181  RH  100%=      5-min Rain = 0
KCA1 242339Z 02005KT 18/18 A298 RMK A01 T01810181  RH  100%=      5-min Rain = 0
KCA1 242340Z 02005KT 18/18 A298 RMK A01 T01810181  RH  100%=      5-min Rain = 0
KCA1 242341Z 02005KT 18/18 A298 RMK A01 T01800181  RH  100%=      5-min Rain = 0
KCA1 242342Z 02004KT 18/18 A298 RMK A01 T01810181  RH  100%=      5-min Rain = 0
KCA1 242343Z 02004KT 18/18 A298 RMK A01 T01810181  RH  100%=      5-min Rain = 0
KCA1 242344Z 01004KT 18/18 A298 RMK A01 T01810181  RH  100%=      5-min Rain = 0
KCA1 242345Z 34003KT 18/18 A298 RMK A01 T01800180  RH  100%=      5-min Rain = 0
KCA1 242346Z 29005KT 18/18 A2981 RMK A01 T01810181  RH  100%=      5-min Rain = 0
KCA1 242347Z 28006KT 18/18 A2981 RMK A01 T01810181  RH  100%=      5-min Rain = 0
KCA1 242348Z 29005KT 18/18 A2981 RMK A01 T01800181  RH  100%=      5-min Rain = 0
KCA1 242349Z 29006KT 18/18 A2981 RMK A01 T01810181  RH  100%=      5-min Rain = 0
KCA1 242350Z 29005KT 18/18 A2981 RMK A01 T01810181  RH  100%=      5-min Rain = 0
KCA1 242351Z 30006KT 18/18 A2981 RMK A01 T01810181  RH  100%=      5-min Rain = 0
KCA1 242352Z 30006KT 18/18 A2981 RMK A01 T01810181  RH  100%=      5-min Rain = 0
KCA1 242353Z 30006KT 18/18 A2981 RMK A01 T01810181  RH  100%=      5-min Rain = 0
KCA1 242354Z 30006KT 18/18 A2981 RMK A01 T01810181  RH  100%=      5-min Rain = 0
KCA1 242355Z 30006KT 18/18 A2981 RMK A01 T01810181  RH  100%=      5-min Rain = 0
KCA1 242356Z 31007KT 18/18 A2981 RMK A01 T01810181  RH  100%=      5-min Rain = 0
KCA1 242357Z 31007KT 18/18 A298 RMK A01 T01810181  RH  100%=      5-min Rain = 0
KCA1 242358Z 31006KT 18/18 A2981 RMK A01 T01810181  RH  100%=      5-min Rain = 0
KCA1 242359Z 31005KT 18/18 A2981 RMK A01 T01810181  RH  100%=      5-min Rain = 0
KCA1 250000Z 31006KT 18/18 A2981 RMK A01 T01810181  RH  100%=      5-min Rain = 0
KCA1 250001Z 30004KT 18/18 A2981 RMK A01 T01810181  RH  100%=      5-min Rain = 0
KCA1 250002Z 30004KT 18/18 A2981 RMK A01 T01810181  RH  100%=      5-min Rain = 0
KCA1 250003Z 29003KT 18/18 A2981 RMK A01 T01800181  RH  100%=      5-min Rain = 0
KCA1 250004Z 30003KT 18/18 A2981 RMK A01 T01810181  RH  100%=      5-min Rain = 0
KCA1 250005Z 30002KT 18/18 A2981 RMK A01 T01810181  RH  100%=      5-min Rain = 0
KCA1 250006Z 30002KT 18/18 A2981 RMK A01 T01810181  RH  100%=      5-min Rain = 0
KCA1 250007Z 29002KT 18/18 A2981 RMK A01 T01810181  RH  100%=      5-min Rain = 0
KCA1 250008Z 29002KT 18/18 A2982 RMK A01 T01810181  RH  100%=      5-min Rain = 0
KCA1 250009Z 29001KT 18/18 A2982 RMK A01 T01810181  RH  100%=      5-min Rain = 0
KCA1 250010Z 27001KT 18/18 A2982 RMK A01 T01810181  RH  100%=      5-min Rain = 0
KCA1 250011Z 23001KT 18/18 A2982 RMK A01 T01810181  RH  100%=      5-min Rain = 0
KCA1 250012Z 22001KT 18/18 A2982 RMK A01 T01810181  RH  100%=      5-min Rain = 0
KCA1 250013Z 21001KT 18/18 A2982 RMK A01 T01810181  RH  100%=      5-min Rain = 0
KCA1 250014Z 21000KT 18/18 A2982 RMK A01 T01810181  RH  100%=      5-min Rain = 0
KCA1 250015Z 00000KT 18/18 A2982 RMK A01 T01810181  RH  100%=      5-min Rain = 0
KCA1 250016Z 00000KT 18/18 A2982 RMK A01 T01810181  RH  100%=      5-min Rain = 0
KCA1 250017Z 00000KT 18/18 A2982 RMK A01 T01800181  RH  100%=      5-min Rain = 0
KCA1 250018Z 00000KT 18/18 A2982 RMK A01 T01810181  RH  100%=      5-min Rain = 0
KCA1 250019Z 00000KT 18/18 A2981 RMK A01 T01810181  RH  100%=      5-min Rain = 0
KCA1 250020Z 00000KT 18/18 A2981 RMK A01 T01810181  RH  100%=      5-min Rain = 0
KCA1 250021Z 00000KT 18/18 A2981 RMK A01 T01810181  RH  100%=      5-min Rain = 0
KCA1 250022Z 00000KT 18/18 A2981 RMK A01 T01810181  RH  100%=      5-min Rain = 0
KCA1 250023Z 03001KT 18/18 A2981 RMK A01 T01810181  RH  100%=      5-min Rain = 0
KCA1 250024Z 02001KT 18/18 A2981 RMK A01 T01810181  RH  100%=      5-min Rain = 0
KCA1 250025Z 01001KT 18/18 A2981 RMK A01 T01810181  RH  100%=      5-min Rain = 0
KCA1 250026Z 01001KT 18/18 A2981 RMK A01 T01800181  RH  100%=      5-min Rain = 0
KCA1 250027Z 01001KT 18/18 A2982 RMK A01 T01800180  RH  100%=      5-min Rain = 0
KCA1 250028Z 01001KT 18/18 A2982 RMK A01 T01800180  RH  100%=      5-min Rain = 0
KCA1 250029Z 04001KT 18/18 A2982 RMK A01 T01800180  RH  100%=      5-min Rain = 0
KCA1 250030Z 04001KT 18/18 A2981 RMK A01 T01800180  RH  100%=      5-min Rain = 0
KCA1 250031Z 02002KT 18/18 A2981 RMK A01 T01800180  RH  100%=      5-min Rain = 0
KCA1 250032Z 02002KT 18/18 A2981 RMK A01 T01800180  RH  100%=      5-min Rain = 0
KCA1 250033Z 03002KT 18/18 A2982 RMK A01 T01790180  RH  100%=      5-min Rain = 0
KCA1 250034Z 03002KT 18/18 A2982 RMK A01 T01800180  RH  100%=      5-min Rain = 0
KCA1 250035Z 02002KT 18/18 A2982 RMK A01 T01800180  RH  100%=      5-min Rain = 0
KCA1 250036Z 01001KT 18/18 A2982 RMK A01 T01790179  RH  100%=      5-min Rain = 0
KCA1 250037Z 00001KT 18/18 A2982 RMK A01 T01790179  RH  100%=      5-min Rain = 0
KCA1 250038Z 35001KT 18/18 A2982 RMK A01 T01790179  RH  100%=      5-min Rain = 0
KCA1 250039Z 35001KT 18/18 A2982 RMK A01 T01790179  RH  100%=      5-min Rain = 0
KCA1 250040Z 01001KT 18/18 A2982 RMK A01 T01790179  RH  100%=      5-min Rain = 0
KCA1 250041Z 01001KT 18/18 A2982 RMK A01 T01790179  RH  100%=      5-min Rain = 0
KCA1 250042Z 02001KT 18/18 A2982 RMK A01 T01790179  RH  100%=      5-min Rain = 0
KCA1 250043Z 06001KT 18/18 A2982 RMK A01 T01790180  RH  100%=      5-min Rain = 0
KCA1 250044Z 07001KT 18/18 A2982 RMK A01 T01790179  RH  100%=      5-min Rain = 0
KCA1 250045Z 03002KT 18/18 A2982 RMK A01 T01790179  RH  100%=      5-min Rain = 0
KCA1 250046Z 02003KT 18/18 A2982 RMK A01 T01790179  RH  100%=      5-min Rain = 0
KCA1 250047Z 02002KT 18/18 A2982 RMK A01 T01790179  RH  100%=      5-min Rain = 0
KCA1 250048Z 06001KT 18/18 A2982 RMK A01 T01790179  RH  100%=      5-min Rain = 0
KCA1 250049Z 07001KT 18/18 A2982 RMK A01 T01790179  RH  100%=      5-min Rain = 0
KCA1 250050Z 05002KT 18/18 A2982 RMK A01 T01790179  RH  100%=      5-min Rain = 0
KCA1 250051Z 05002KT 18/18 A2982 RMK A01 T01780179  RH  100%=      5-min Rain = 0
KCA1 250052Z 06002KT 18/18 A2982 RMK A01 T01780178  RH  100%=      5-min Rain = 0
KCA1 250053Z 05002KT 18/18 A2982 RMK A01 T01780178  RH  100%=      5-min Rain = 0
KCA1 250054Z 05003KT 18/18 A2982 RMK A01 T01780178  RH  100%=      5-min Rain = 0
KCA1 250055Z 05003KT 18/18 A2982 RMK A01 T01780178  RH  100%=      5-min Rain = 0
KCA1 250056Z 07003KT 18/18 A2982 RMK A01 T01780178  RH  100%=      5-min Rain = 0
KCA1 250057Z 08003KT 18/18 A2982 RMK A01 T01770177  RH  100%=      5-min Rain = 0
KCA1 250058Z 07003KT 18/18 A2982 RMK A01 T01770178  RH  100%=      5-min Rain = 0
KCA1 250059Z 06003KT 18/18 A2982 RMK A01 T01770177  RH  100%=      5-min Rain = 0
KCA1 250100Z 06003KT 18/18 A2982 RMK A01 T01780178  RH  100%=      5-min Rain = 0
KCA1 250101Z 06004KT 18/18 A2982 RMK A01 T01780178  RH  100%=      5-min Rain = 0
KCA1 250102Z 06004KT 18/18 A2982 RMK A01 T01780178  RH  100%=      5-min Rain = 0
KCA1 250103Z 06005KT 18/18 A2982 RMK A01 T01770177  RH  100%=      5-min Rain = 0
KCA1 250104Z 05005KT 18/18 A2982 RMK A01 T01770177  RH  100%=      5-min Rain = 0
KCA1 250105Z 05005KT 18/18 A2981 RMK A01 T01770177  RH  100%=      5-min Rain = 0
KCA1 250106Z 04006KT 18/18 A2981 RMK A01 T01770177  RH  100%=      5-min Rain = 0
KCA1 250107Z 03006KT 18/18 A2981 RMK A01 T01770177  RH  100%=      5-min Rain = 0
KCA1 250108Z 03006KT 18/18 A2981 RMK A01 T01770177  RH  100%=      5-min Rain = 0
KCA1 250109Z 03005KT 18/18 A2981 RMK A01 T01770177  RH  100%=      5-min Rain = 0
KCA1 250110Z 03004KT 18/18 A2982 RMK A01 T01760176  RH  100%=      5-min Rain = 0
KCA1 250111Z 04004KT 18/18 A2982 RMK A01 T01760176  RH  100%=      5-min Rain = 0
KCA1 250112Z 05004KT 18/18 A2982 RMK A01 T01760176  RH  100%=      5-min Rain = 0
KCA1 250113Z 05004KT 18/18 A2982 RMK A01 T01760177  RH  100%=      5-min Rain = 0
KCA1 250114Z 05005KT 18/18 A2982 RMK A01 T01770177  RH  100%=      5-min Rain = 0
KCA1 250115Z 04004KT 18/18 A2982 RMK A01 T01760177  RH  100%=      5-min Rain = 0
KCA1 250116Z 02005KT 18/18 A2981 RMK A01 T01760176  RH  100%=      5-min Rain = 0
KCA1 250117Z 02005KT 18/18 A2981 RMK A01 T01770177  RH  100%=      5-min Rain = 0
KCA1 250118Z 03004KT 18/18 A2982 RMK A01 T01770177  RH  100%=      5-min Rain = 0
KCA1 250119Z 05003KT 18/18 A2982 RMK A01 T01770177  RH  100%=      5-min Rain = 0
KCA1 250120Z 08003KT 18/18 A2982 RMK A01 T01770177  RH  100%=      5-min Rain = 0
KCA1 250121Z 08003KT 18/18 A2982 RMK A01 T01770177  RH  100%=      5-min Rain = 0
KCA1 250122Z 07003KT 18/18 A2982 RMK A01 T01770177  RH  100%=      5-min Rain = 0
KCA1 250123Z 07003KT 18/18 A2982 RMK A01 T01770177  RH  100%=      5-min Rain = 0
KCA1 250124Z 08004KT 18/18 A2982 RMK A01 T01770177  RH  100%=      5-min Rain = 0
KCA1 250125Z 10004KT 18/18 A2982 RMK A01 T01780178  RH  100%=      5-min Rain = 0
KCA1 250126Z 11005KT 18/18 A2983 RMK A01 T01780178  RH  100%=      5-min Rain = 0
KCA1 250127Z 10005KT 18/18 A2983 RMK A01 T01770178  RH  100%=      5-min Rain = 0
KCA1 250128Z 09004KT 18/18 A2982 RMK A01 T01780178  RH  100%=      5-min Rain = 0
KCA1 250129Z 09004KT 18/18 A2982 RMK A01 T01780178  RH  100%=      5-min Rain = 0
KCA1 250130Z 09004KT 18/18 A2982 RMK A01 T01780178  RH  100%=      5-min Rain = 0
KCA1 250131Z 11003KT 18/18 A2982 RMK A01 T01780178  RH  100%=      5-min Rain = 0
KCA1 250132Z 14002KT 18/18 A2982 RMK A01 T01780178  RH  100%=      5-min Rain = 0
KCA1 250133Z 17002KT 18/18 A2982 RMK A01 T01780179  RH  100%=      5-min Rain = 0
KCA1 250134Z 17002KT 18/18 A2982 RMK A01 T01780179  RH  100%=      5-min Rain = 0
KCA1 250135Z 17003KT 18/18 A2983 RMK A01 T01790179  RH  100%=      5-min Rain = 0
KCA1 250136Z 16003KT 18/18 A2983 RMK A01 T01780178  RH  100%=      5-min Rain = 0
KCA1 250137Z 15003KT 18/18 A2983 RMK A01 T01780178  RH  100%=      5-min Rain = 0
KCA1 250138Z 15004KT 18/18 A2983 RMK A01 T01780178  RH  100%=      5-min Rain = 0
KCA1 250139Z 15003KT 18/18 A2983 RMK A01 T01770178  RH  100%=      5-min Rain = 0
KCA1 250140Z 14004KT 18/18 A2983 RMK A01 T01770178  RH  100%=      5-min Rain = 0
KCA1 250141Z 14004KT 18/18 A2983 RMK A01 T01770177  RH  100%=      5-min Rain = 0
KCA1 250142Z 14004KT 18/18 A2983 RMK A01 T01770177  RH  100%=      5-min Rain = 0
KCA1 250143Z 14004KT 18/18 A2983 RMK A01 T01770177  RH  100%=      5-min Rain = 0
KCA1 250144Z 15003KT 18/18 A2983 RMK A01 T01770177  RH  100%=      5-min Rain = 0
KCA1 250145Z 15003KT 18/18 A2983 RMK A01 T01770177  RH  100%=      5-min Rain = 0
KCA1 250146Z 16003KT 18/18 A2984 RMK A01 T01760176  RH  100%=      5-min Rain = 0
KCA1 250147Z 16003KT 18/18 A2984 RMK A01 T01770177  RH  100%=      5-min Rain = 0
KCA1 250148Z 16003KT 18/18 A2984 RMK A01 T01760177  RH  100%=      5-min Rain = 0
KCA1 250149Z 16004KT 18/18 A2984 RMK A01 T01770177  RH  100%=      5-min Rain = 0
KCA1 250150Z 16004KT 18/18 A2984 RMK A01 T01760176  RH  100%=      5-min Rain = 0
KCA1 250151Z 16004KT 18/18 A2984 RMK A01 T01760176  RH  100%=      5-min Rain = 0
KCA1 250152Z 16003KT 18/18 A2984 RMK A01 T01760176  RH  100%=      5-min Rain = 0
KCA1 250153Z 15003KT 18/18 A2984 RMK A01 T01760176  RH  100%=      5-min Rain = 0
KCA1 250154Z 16003KT 18/18 A2984 RMK A01 T01760176  RH  100%=      5-min Rain = 0
KCA1 250155Z 16003KT 18/18 A2984 RMK A01 T01760176  RH  100%=      5-min Rain = 0
KCA1 250156Z 16002KT 18/18 A2984 RMK A01 T01750176  RH  100%=      5-min Rain = 0
KCA1 250157Z 16002KT 18/18 A2984 RMK A01 T01760176  RH  100%=      5-min Rain = 0
KCA1 250158Z 17003KT 18/18 A2984 RMK A01 T01750175  RH  100%=      5-min Rain = 0
KCA1 250159Z 17003KT 18/18 A2984 RMK A01 T01750175  RH  100%=      5-min Rain = 0
KCA1 250200Z 17002KT 18/18 A2984 RMK A01 T01750175  RH  100%=      5-min Rain = 0
KCA1 250201Z 17003KT 18/18 A2984 RMK A01 T01750175  RH  100%=      5-min Rain = 0
KCA1 250202Z 17003KT 17/18 A2984 RMK A01 T01740175  RH  100%=      5-min Rain = 0
KCA1 250203Z 18004KT 18/18 A2984 RMK A01 T01750175  RH  100%=      5-min Rain = 0
KCA1 250204Z 18004KT 17/17 A2984 RMK A01 T01740174  RH  100%=      5-min Rain = 0
KCA1 250205Z 18003KT 17/17 A2984 RMK A01 T01740174  RH  100%=      5-min Rain = 0
KCA1 250206Z 18005KT 17/17 A2985 RMK A01 T01740174  RH  100%=      5-min Rain = 0
KCA1 250207Z 19005KT 17/17 A2985 RMK A01 T01740174  RH  100%=      5-min Rain = 0
KCA1 250208Z 18004KT 17/17 A2985 RMK A01 T01740174  RH  100%=      5-min Rain = 0
KCA1 250209Z 16003KT 17/17 A2985 RMK A01 T01730174  RH  100%=      5-min Rain = 0
KCA1 250210Z 18005KT 17/17 A2985 RMK A01 T01730174  RH  100%=      5-min Rain = 0
KCA1 250211Z 19006KT 17/17 A2985 RMK A01 T01730173  RH  100%=      5-min Rain = 0
KCA1 250212Z 18005KT 17/17 A2985 RMK A01 T01730174  RH  100%=      5-min Rain = 0
KCA1 250213Z 16002KT 17/17 A2985 RMK A01 T01730173  RH  100%=      5-min Rain = 0
KCA1 250214Z 19003KT 17/17 A2985 RMK A01 T01730173  RH  100%=      5-min Rain = 0
KCA1 250215Z 18004KT 17/17 A2985 RMK A01 T01730173  RH  100%=      5-min Rain = 0
KCA1 250216Z 17003KT 17/17 A2985 RMK A01 T01730173  RH  100%=      5-min Rain = 0
KCA1 250217Z 17005KT 17/17 A2985 RMK A01 T01730173  RH  100%=      5-min Rain = 0
KCA1 250218Z 17005KT 17/17 A2985 RMK A01 T01730173  RH  100%=      5-min Rain = 0
KCA1 250219Z 15004KT 17/17 A2985 RMK A01 T01730173  RH  100%=      5-min Rain = 0
KCA1 250220Z 15004KT 17/17 A2985 RMK A01 T01730173  RH  100%=      5-min Rain = 0
KCA1 250221Z 15004KT 17/17 A2986 RMK A01 T01730173  RH  100%=      5-min Rain = 0
KCA1 250222Z 15004KT 17/17 A2986 RMK A01 T01730173  RH  100%=      5-min Rain = 0
KCA1 250223Z 15004KT 17/17 A2985 RMK A01 T01730173  RH  100%=      5-min Rain = 0
KCA1 250224Z 14004KT 17/17 A2985 RMK A01 T01730173  RH  100%=      5-min Rain = 0
KCA1 250225Z 13004KT 17/17 A2985 RMK A01 T01730173  RH  100%=      5-min Rain = 0
KCA1 250226Z 14004KT 17/17 A2986 RMK A01 T01720173  RH  100%=      5-min Rain = 0
KCA1 250227Z 14006KT 17/17 A2986 RMK A01 T01720172  RH  100%=      5-min Rain = 0
KCA1 250228Z 13005KT 17/17 A2985 RMK A01 T01720173  RH  100%=      5-min Rain = 0
KCA1 250229Z 13006KT 17/17 A2985 RMK A01 T01720172  RH  100%=      5-min Rain = 0
KCA1 250230Z 13006KT 17/17 A2985 RMK A01 T01730173  RH  100%=      5-min Rain = 0
KCA1 250231Z 12006KT 17/17 A2985 RMK A01 T01720173  RH  100%=      5-min Rain = 0
KCA1 250232Z 13007KT 17/17 A2985 RMK A01 T01720172  RH  100%=      5-min Rain = 0
KCA1 250233Z 13007KT 17/17 A2985 RMK A01 T01730173  RH  100%=      5-min Rain = 0
KCA1 250234Z 14007KT 17/17 A2985 RMK A01 T01720172  RH  100%=      5-min Rain = 0
KCA1 250235Z 13008KT 17/17 A2985 RMK A01 T01730173  RH  100%=      5-min Rain = 0
KCA1 250236Z 13008KT 17/17 A2985 RMK A01 T01730173  RH  100%=      5-min Rain = 0
KCA1 250237Z 14006KT 17/17 A2985 RMK A01 T01730173  RH  100%=      5-min Rain = 0
KCA1 250238Z 14007KT 17/17 A2985 RMK A01 T01730174  RH  100%=      5-min Rain = 0
KCA1 250239Z 14007KT 17/17 A2985 RMK A01 T01740174  RH  100%=      5-min Rain = 0
KCA1 250240Z 14007KT 17/17 A2985 RMK A01 T01740174  RH  100%=      5-min Rain = 0
KCA1 250241Z 15006KT 17/17 A2985 RMK A01 T01740174  RH  100%=      5-min Rain = 0
KCA1 250242Z 16007KT 17/17 A2985 RMK A01 T01740174  RH  100%=      5-min Rain = 0
KCA1 250243Z 16009KT 17/17 A2985 RMK A01 T01740174  RH  100%=      5-min Rain = 0
KCA1 250244Z 16009KT 17/18 A2986 RMK A01 T01740175  RH  100%=      5-min Rain = 0
KCA1 250245Z 16009KT 18/18 A2986 RMK A01 T01750175  RH  100%=      5-min Rain = 0
KCA1 250246Z 16010KT 18/18 A2986 RMK A01 T01750175  RH  100%=      5-min Rain = 0
KCA1 250247Z 16008KT 18/18 A2986 RMK A01 T01760176  RH  100%=      5-min Rain = 0
KCA1 250248Z 16010KT 18/18 A2986 RMK A01 T01760176  RH  100%=      5-min Rain = 0
KCA1 250249Z 16010KT 18/18 A2985 RMK A01 T01770177  RH  100%=      5-min Rain = 0
KCA1 250250Z 16010KT 18/18 A2985 RMK A01 T01770177  RH  100%=      5-min Rain = 0
KCA1 250251Z 16009KT 18/18 A2985 RMK A01 T01780178  RH  100%=      5-min Rain = 0
KCA1 250252Z 16008KT 18/18 A2985 RMK A01 T01790178  RH  099%=      5-min Rain = 0
KCA1 250253Z 16009KT 18/18 A2985 RMK A01 T01790176  RH  098%=      5-min Rain = 0
KCA1 250254Z 16007KT 18/18 A2985 RMK A01 T01800175  RH  097%=      5-min Rain = 0
KCA1 250255Z 16008KT 18/17 A2986 RMK A01 T01790173  RH  096%=      5-min Rain = 0
KCA1 250256Z 16008KT 18/17 A2986 RMK A01 T01790172  RH  096%=      5-min Rain = 0
KCA1 250257Z 16009KT 18/17 A2986 RMK A01 T01790172  RH  096%=      5-min Rain = 0
KCA1 250258Z 16009KT 18/17 A2987 RMK A01 T01790172  RH  095%=      5-min Rain = 0
KCA1 250259Z 16010KT 18/17 A2987 RMK A01 T01780171  RH  095%=      5-min Rain = 0
KCA1 250300Z 16010KT 18/17 A2987 RMK A01 T01780169  RH  094%=      5-min Rain = 0
KCA1 250301Z 17009KT 18/17 A2987 RMK A01 T01780167  RH  093%=      5-min Rain = 0
KCA1 250302Z 17011G16KT 18/17 A2987 RMK A01 T01780166  RH  093%=      5-min Rain = 0
KCA1 250303Z 16010KT 18/16 A2986 RMK A01 T01780163  RH  091%=      5-min Rain = 0
KCA1 250304Z 16010KT 18/16 A2986 RMK A01 T01790163  RH  091%=      5-min Rain = 0
KCA1 250305Z 16009KT 18/16 A2986 RMK A01 T01790162  RH  090%=      5-min Rain = 0
KCA1 250306Z 16009KT 18/16 A2986 RMK A01 T01790162  RH  090%=      5-min Rain = 0
KCA1 250307Z 16009KT 18/16 A2986 RMK A01 T01780162  RH  090%=      5-min Rain = 0
KCA1 250308Z 16008KT 18/16 A2986 RMK A01 T01780161  RH  090%=      5-min Rain = 0
KCA1 250309Z 15009KT 18/16 A2986 RMK A01 T01780162  RH  090%=      5-min Rain = 0
KCA1 250310Z 16010KT 18/16 A2986 RMK A01 T01770161  RH  090%=      5-min Rain = 0
KCA1 250311Z 16009KT 18/16 A2987 RMK A01 T01770161  RH  090%=      5-min Rain = 0
KCA1 250312Z 16010KT 18/16 A2986 RMK A01 T01770160  RH  090%=      5-min Rain = 0
KCA1 250313Z 16010KT 18/16 A2986 RMK A01 T01770160  RH  090%=      5-min Rain = 0
KCA1 250314Z 15010KT 18/16 A2986 RMK A01 T01770159  RH  089%=      5-min Rain = 0
KCA1 250315Z 15010KT 18/16 A2987 RMK A01 T01770160  RH  089%=      5-min Rain = 0
KCA1 250316Z 16011KT 18/16 A2986 RMK A01 T01770160  RH  090%=      5-min Rain = 0
KCA1 250317Z 15010KT 18/16 A2987 RMK A01 T01770160  RH  090%=      5-min Rain = 0
KCA1 250318Z 16010KT 18/16 A2987 RMK A01 T01770160  RH  090%=      5-min Rain = 0
KCA1 250319Z 16010KT 18/16 A2986 RMK A01 T01770160  RH  090%=      5-min Rain = 0
KCA1 250320Z 16010KT 18/16 A2986 RMK A01 T01770159  RH  089%=      5-min Rain = 0
KCA1 250321Z 15010KT 18/16 A2986 RMK A01 T01770159  RH  089%=      5-min Rain = 0
KCA1 250322Z 16009KT 18/16 A2987 RMK A01 T01770159  RH  089%=      5-min Rain = 0
KCA1 250323Z 16010KT 18/16 A2987 RMK A01 T01770159  RH  089%=      5-min Rain = 0
KCA1 250324Z 15009KT 18/16 A2987 RMK A01 T01760159  RH  090%=      5-min Rain = 0
KCA1 250325Z 16008KT 18/16 A2987 RMK A01 T01760159  RH  090%=      5-min Rain = 0
KCA1 250326Z 15010KT 18/16 A2987 RMK A01 T01760159  RH  090%=      5-min Rain = 0
KCA1 250327Z 16009KT 18/16 A2987 RMK A01 T01750159  RH  090%=      5-min Rain = 0
KCA1 250328Z 16011KT 18/16 A2987 RMK A01 T01750158  RH  090%=      5-min Rain = 0
KCA1 250329Z 16009KT 18/16 A2987 RMK A01 T01760159  RH  090%=      5-min Rain = 0
KCA1 250330Z 16012KT 18/16 A2988 RMK A01 T01750159  RH  090%=      5-min Rain = 0
KCA1 250331Z 16012KT 18/16 A2988 RMK A01 T01750159  RH  090%=      5-min Rain = 0
KCA1 250332Z 16012KT 18/16 A2988 RMK A01 T01750158  RH  090%=      5-min Rain = 0
KCA1 250333Z 16012KT 18/16 A2988 RMK A01 T01750158  RH  090%=      5-min Rain = 0
KCA1 250334Z 16010KT 18/16 A2988 RMK A01 T01760159  RH  090%=      5-min Rain = 0
KCA1 250335Z 17012KT 18/16 A2988 RMK A01 T01760158  RH  090%=      5-min Rain = 0
KCA1 250336Z 17012KT 18/16 A2988 RMK A01 T01750158  RH  090%=      5-min Rain = 0
KCA1 250337Z 16010KT 18/16 A2988 RMK A01 T01760159  RH  090%=      5-min Rain = 0
KCA1 250338Z 16011KT 18/16 A2988 RMK A01 T01760159  RH  090%=      5-min Rain = 0
KCA1 250339Z 16009KT 18/16 A2988 RMK A01 T01760158  RH  090%=      5-min Rain = 0
KCA1 250340Z 16010KT 18/16 A2989 RMK A01 T01760159  RH  090%=      5-min Rain = 0
KCA1 250341Z 16012KT 18/16 A2989 RMK A01 T01750158  RH  090%=      5-min Rain = 0
KCA1 250342Z 17009KT 18/16 A2989 RMK A01 T01750159  RH  090%=      5-min Rain = 0
KCA1 250343Z 17008KT 17/16 A2989 RMK A01 T01740159  RH  091%=      5-min Rain = 0
KCA1 250344Z 16009KT 17/16 A2989 RMK A01 T01740159  RH  091%=      5-min Rain = 0
KCA1 250345Z 16009KT 17/16 A299 RMK A01 T01730159  RH  091%=      5-min Rain = 0
KCA1 250346Z 17010KT 17/16 A299 RMK A01 T01730159  RH  091%=      5-min Rain = 0
KCA1 250347Z 16009KT 17/16 A299 RMK A01 T01730159  RH  091%=      5-min Rain = 0
KCA1 250348Z 16010KT 17/16 A299 RMK A01 T01730159  RH  091%=      5-min Rain = 0
KCA1 250349Z 16010KT 17/16 A2989 RMK A01 T01730159  RH  091%=      5-min Rain = 0
KCA1 250350Z 16009KT 17/16 A2989 RMK A01 T01730159  RH  091%=      5-min Rain = 0
KCA1 250351Z 17006KT 17/16 A2989 RMK A01 T01730159  RH  091%=      5-min Rain = 0
KCA1 250352Z 17008KT 17/16 A2989 RMK A01 T01730159  RH  091%=      5-min Rain = 0
KCA1 250353Z 16005KT 17/16 A2989 RMK A01 T01730159  RH  092%=      5-min Rain = 0
KCA1 250354Z 17007KT 17/16 A2989 RMK A01 T01720159  RH  092%=      5-min Rain = 0
KCA1 250355Z 16009KT 17/16 A299 RMK A01 T01720159  RH  092%=      5-min Rain = 0
KCA1 250356Z 16009KT 17/16 A2989 RMK A01 T01720160  RH  092%=      5-min Rain = 0
KCA1 250357Z 17008KT 17/16 A299 RMK A01 T01720160  RH  092%=      5-min Rain = 0
KCA1 250358Z 16010KT 17/16 A299 RMK A01 T01720160  RH  093%=      5-min Rain = 0
KCA1 250359Z 17010KT 17/16 A299 RMK A01 T01710160  RH  093%=      5-min Rain = 0
KCA1 250400Z 16010KT 17/16 A299 RMK A01 T01710160  RH  093%=      5-min Rain = 0
KCA1 250401Z 16008KT 17/16 A299 RMK A01 T01710160  RH  094%=      5-min Rain = 0
KCA1 250402Z 17009KT 17/16 A299 RMK A01 T01700160  RH  094%=      5-min Rain = 0
KCA1 250403Z 17009KT 17/16 A299 RMK A01 T01710160  RH  094%=      5-min Rain = 0
KCA1 250404Z 17009KT 17/16 A2991 RMK A01 T01700160  RH  094%=      5-min Rain = 0
KCA1 250405Z 16009KT 17/16 A2991 RMK A01 T01700161  RH  094%=      5-min Rain = 0
KCA1 250406Z 16007KT 17/16 A299 RMK A01 T01700161  RH  094%=      5-min Rain = 0
KCA1 250407Z 16007KT 17/16 A299 RMK A01 T01690161  RH  094%=      5-min Rain = 0
KCA1 250408Z 17008KT 17/16 A2991 RMK A01 T01700161  RH  095%=      5-min Rain = 0
KCA1 250409Z 17008KT 17/16 A2991 RMK A01 T01690161  RH  095%=      5-min Rain = 0
KCA1 250410Z 17009KT 17/16 A2991 RMK A01 T01690161  RH  095%=      5-min Rain = 0
KCA1 250411Z 17008KT 17/16 A2991 RMK A01 T01690161  RH  095%=      5-min Rain = 0
KCA1 250412Z 17006KT 17/16 A2991 RMK A01 T01690161  RH  095%=      5-min Rain = 0
KCA1 250413Z 17006KT 17/16 A2991 RMK A01 T01690161  RH  095%=      5-min Rain = 0
KCA1 250414Z 17007KT 17/16 A2991 RMK A01 T01690161  RH  095%=      5-min Rain = 0
KCA1 250415Z 16007KT 17/16 A2991 RMK A01 T01690161  RH  095%=      5-min Rain = 0
KCA1 250416Z 16008KT 17/16 A2991 RMK A01 T01690162  RH  095%=      5-min Rain = 0
KCA1 250417Z 16007KT 17/16 A2991 RMK A01 T01690162  RH  095%=      5-min Rain = 0
KCA1 250418Z 17008KT 17/16 A2991 RMK A01 T01690162  RH  095%=      5-min Rain = 0
KCA1 250419Z 17007KT 17/16 A2991 RMK A01 T01690161  RH  095%=      5-min Rain = 0
KCA1 250420Z 16008KT 17/16 A2992 RMK A01 T01690161  RH  095%=      5-min Rain = 0
KCA1 250421Z 16007KT 17/16 A2992 RMK A01 T01690162  RH  095%=      5-min Rain = 0
KCA1 250422Z 16007KT 17/16 A2992 RMK A01 T01690162  RH  096%=      5-min Rain = 0
KCA1 250423Z 16007KT 17/16 A2991 RMK A01 T01690162  RH  096%=      5-min Rain = 0
KCA1 250424Z 16006KT 17/16 A2991 RMK A01 T01690162  RH  096%=      5-min Rain = 0
KCA1 250425Z 16004KT 17/16 A2991 RMK A01 T01690162  RH  096%=      5-min Rain = 0
KCA1 250426Z 16005KT 17/16 A2992 RMK A01 T01680162  RH  096%=      5-min Rain = 0
KCA1 250427Z 17007KT 17/16 A2992 RMK A01 T01680162  RH  096%=      5-min Rain = 0
KCA1 250428Z 16006KT 17/16 A2992 RMK A01 T01680162  RH  096%=      5-min Rain = 0
KCA1 250429Z 16005KT 17/16 A2992 RMK A01 T01680162  RH  096%=      5-min Rain = 0
KCA1 250430Z 16006KT 17/16 A2992 RMK A01 T01680162  RH  096%=      5-min Rain = 0
KCA1 250431Z 17006KT 17/16 A2993 RMK A01 T01680162  RH  096%=      5-min Rain = 0
KCA1 250432Z 17004KT 17/16 A2992 RMK A01 T01680162  RH  097%=      5-min Rain = 0
KCA1 250433Z 16004KT 17/16 A2992 RMK A01 T01670162  RH  097%=      5-min Rain = 0
KCA1 250434Z 17005KT 17/16 A2992 RMK A01 T01670162  RH  097%=      5-min Rain = 0
KCA1 250435Z 18004KT 17/16 A2992 RMK A01 T01670162  RH  097%=      5-min Rain = 0
KCA1 250436Z 17006KT 17/16 A2993 RMK A01 T01670162  RH  097%=      5-min Rain = 0
KCA1 250437Z 17006KT 17/16 A2993 RMK A01 T01670162  RH  097%=      5-min Rain = 0
KCA1 250438Z 16006KT 17/16 A2993 RMK A01 T01670162  RH  097%=      5-min Rain = 0
KCA1 250439Z 16004KT 17/16 A2993 RMK A01 T01670162  RH  097%=      5-min Rain = 0
KCA1 250440Z 17002KT 17/16 A2992 RMK A01 T01670162  RH  097%=      5-min Rain = 0
KCA1 250441Z 17003KT 17/16 A2992 RMK A01 T01670162  RH  097%=      5-min Rain = 0
KCA1 250442Z 17004KT 17/16 A2993 RMK A01 T01670162  RH  097%=      5-min Rain = 0
KCA1 250443Z 18005KT 17/16 A2993 RMK A01 T01670162  RH  097%=      5-min Rain = 0
KCA1 250444Z 17006KT 17/16 A2993 RMK A01 T01670162  RH  097%=      5-min Rain = 0
KCA1 250445Z 17008KT 17/16 A2993 RMK A01 T01670162  RH  097%=      5-min Rain = 0
KCA1 250446Z 17006KT 17/16 A2992 RMK A01 T01670163  RH  097%=      5-min Rain = 0
KCA1 250447Z 17008KT 17/16 A2992 RMK A01 T01680163  RH  097%=      5-min Rain = 0
KCA1 250448Z 17007KT 17/16 A2993 RMK A01 T01680163  RH  097%=      5-min Rain = 0
KCA1 250449Z 18009G14KT 17/16 A2992 RMK A01 T01680163  RH  096%=      5-min Rain = 0
KCA1 250450Z 17011KT 17/16 A2992 RMK A01 T01680163  RH  096%=      5-min Rain = 0
KCA1 250451Z 18009KT 17/16 A2992 RMK A01 T01690163  RH  096%=      5-min Rain = 0
KCA1 250452Z 18012KT 17/16 A2992 RMK A01 T01690163  RH  096%=      5-min Rain = 0
KCA1 250453Z 18010KT 17/16 A2992 RMK A01 T01700163  RH  096%=      5-min Rain = 0
KCA1 250454Z 17013KT 17/16 A2992 RMK A01 T01700163  RH  096%=      5-min Rain = 0
KCA1 250455Z 17013KT 17/16 A2992 RMK A01 T01710163  RH  095%=      5-min Rain = 0
KCA1 250456Z 18010KT 17/16 A2992 RMK A01 T01710163  RH  095%=      5-min Rain = 0
KCA1 250457Z 18009KT 17/16 A2992 RMK A01 T01720163  RH  095%=      5-min Rain = 0
KCA1 250458Z 17010KT 17/16 A2992 RMK A01 T01710163  RH  095%=      5-min Rain = 0
KCA1 250459Z 17010KT 17/16 A2993 RMK A01 T01710163  RH  095%=      5-min Rain = 0

Page generated in 0.1317 seconds.